Time,TemperatureF,DewpointF,PressureIn,WindDirection,WindDirectionDegrees,WindSpeedMPH,WindSpeedGustMPH,Humidity,HourlyPrecipIn,Conditions,Clouds,dailyrainin,SoftwareType,DateUTC
2013-08-24 00:01:00,73.4,73.4,29.15,South,182,0.0,0.0,100,0.00,,,0.00,VWS V13.01,2013-08-24 05:01:00,
2013-08-24 00:02:00,73.4,73.4,29.15,South,182,0.0,0.0,100,0.00,,,0.00,VWS V13.01,2013-08-24 05:02:00,
2013-08-24 00:06:00,73.4,73.4,29.15,South,182,0.0,0.0,100,0.00,,,0.00,VWS V13.01,2013-08-24 05:06:00,
2013-08-24 00:07:00,73.2,73.2,29.15,South,182,0.0,0.0,100,0.00,,,0.00,VWS V13.01,2013-08-24 05:07:00,
2013-08-24 00:11:00,73.0,73.1,29.15,South,182,0.0,0.0,100,0.00,,,0.00,VWS V13.01,2013-08-24 05:11:00,
2013-08-24 00:12:00,73.0,73.1,29.15,South,182,0.0,0.0,100,0.00,,,0.00,VWS V13.01,2013-08-24 05:12:00,
2013-08-24 00:17:00,72.9,72.9,29.15,South,182,0.0,0.0,100,0.00,,,0.00,VWS V13.01,2013-08-24 05:17:00,
2013-08-24 00:22:00,73.2,73.2,29.15,South,182,0.0,0.0,100,0.00,,,0.00,VWS V13.01,2013-08-24 05:22:00,
2013-08-24 00:23:00,73.2,73.2,29.15,South,182,0.0,0.0,100,0.00,,,0.00,VWS V13.01,2013-08-24 05:23:00,
2013-08-24 00:27:00,73.4,73.4,29.15,South,182,0.0,0.0,100,0.00,,,0.00,VWS V13.01,2013-08-24 05:27:00,
2013-08-24 00:28:00,73.4,73.4,29.15,South,182,0.0,0.0,100,0.00,,,0.00,VWS V13.01,2013-08-24 05:28:00,
2013-08-24 00:32:00,73.6,73.6,29.15,South,182,0.0,0.0,100,0.00,,,0.00,VWS V13.01,2013-08-24 05:32:00,
2013-08-24 00:33:00,73.6,73.6,29.15,South,182,0.0,0.0,100,0.00,,,0.00,VWS V13.01,2013-08-24 05:33:00,
2013-08-24 00:37:00,73.9,73.9,29.15,South,182,0.0,0.0,100,0.00,,,0.00,VWS V13.01,2013-08-24 05:37:00,
2013-08-24 00:38:00,73.9,73.9,29.15,South,182,0.0,0.0,100,0.00,,,0.00,VWS V13.01,2013-08-24 05:38:00,
2013-08-24 00:42:00,73.9,73.9,29.15,South,182,0.0,0.0,100,0.00,,,0.00,VWS V13.01,2013-08-24 05:42:00,
2013-08-24 00:43:00,74.1,74.1,29.15,South,182,0.0,0.0,100,0.00,,,0.00,VWS V13.01,2013-08-24 05:43:00,
2013-08-24 00:47:00,73.9,73.9,29.15,South,182,0.0,0.0,100,0.00,,,0.00,VWS V13.01,2013-08-24 05:47:00,
2013-08-24 00:48:00,73.9,73.9,29.15,South,182,0.0,0.0,100,0.00,,,0.00,VWS V13.01,2013-08-24 05:48:00,
2013-08-24 00:52:00,73.9,73.9,29.15,South,182,0.0,0.0,100,0.00,,,0.00,VWS V13.01,2013-08-24 05:52:00,
2013-08-24 00:53:00,73.9,73.9,29.15,South,182,0.0,0.0,100,0.00,,,0.00,VWS V13.01,2013-08-24 05:53:00,
2013-08-24 00:58:00,73.8,73.8,29.15,South,182,0.0,0.0,100,0.00,,,0.00,VWS V13.01,2013-08-24 05:58:00,
2013-08-24 01:03:00,73.6,73.6,29.15,South,182,0.0,0.0,100,0.00,,,0.00,VWS V13.01,2013-08-24 06:03:00,
2013-08-24 01:04:00,73.6,73.6,29.15,South,182,0.0,0.0,100,0.00,,,0.00,VWS V13.01,2013-08-24 06:04:00,
2013-08-24 01:08:00,73.8,73.8,29.15,South,182,0.0,0.0,100,0.00,,,0.00,VWS V13.01,2013-08-24 06:08:00,
2013-08-24 01:09:00,73.8,73.8,29.15,South,182,0.0,0.0,100,0.00,,,0.00,VWS V13.01,2013-08-24 06:09:00,
2013-08-24 01:13:00,73.6,73.6,29.15,South,182,0.0,0.0,100,0.00,,,0.00,VWS V13.01,2013-08-24 06:13:00,
2013-08-24 01:14:00,73.6,73.6,29.15,South,182,0.0,0.0,100,0.00,,,0.00,VWS V13.01,2013-08-24 06:14:00,
2013-08-24 01:18:00,73.6,73.6,29.15,South,182,0.0,0.0,100,0.00,,,0.00,VWS V13.01,2013-08-24 06:18:00,
2013-08-24 01:19:00,73.6,73.6,29.15,South,182,0.0,0.0,100,0.00,,,0.00,VWS V13.01,2013-08-24 06:19:00,
2013-08-24 01:23:00,73.4,73.4,29.15,South,182,0.0,0.0,100,0.00,,,0.00,VWS V13.01,2013-08-24 06:23:00,
2013-08-24 01:24:00,73.4,73.4,29.15,South,182,0.0,0.0,100,0.00,,,0.00,VWS V13.01,2013-08-24 06:24:00,
2013-08-24 01:28:00,73.4,73.4,29.15,South,182,0.0,0.0,100,0.00,,,0.00,VWS V13.01,2013-08-24 06:28:00,
2013-08-24 01:29:00,73.4,73.4,29.15,South,182,0.0,0.0,100,0.00,,,0.00,VWS V13.01,2013-08-24 06:29:00,
2013-08-24 01:33:00,73.6,73.6,29.15,South,182,0.0,0.0,100,0.00,,,0.00,VWS V13.01,2013-08-24 06:33:00,
2013-08-24 01:34:00,73.4,73.4,29.15,South,182,0.0,0.0,100,0.00,,,0.00,VWS V13.01,2013-08-24 06:34:00,
2013-08-24 01:38:00,73.4,73.4,29.15,South,182,0.0,0.0,100,0.00,,,0.00,VWS V13.01,2013-08-24 06:38:00,
2013-08-24 01:39:00,73.4,73.4,29.15,South,182,0.0,0.0,100,0.00,,,0.00,VWS V13.01,2013-08-24 06:39:00,
2013-08-24 01:40:00,73.2,73.2,29.15,South,182,0.0,0.0,100,0.00,,,0.00,VWS V13.01,2013-08-24 06:40:00,
2013-08-24 01:43:00,73.2,73.2,29.15,South,182,0.0,0.0,100,0.00,,,0.00,VWS V13.01,2013-08-24 06:43:00,
2013-08-24 01:44:00,73.0,73.1,29.15,South,182,0.0,0.0,100,0.00,,,0.00,VWS V13.01,2013-08-24 06:44:00,
2013-08-24 01:45:00,73.0,73.1,29.15,South,182,0.0,0.0,100,0.00,,,0.00,VWS V13.01,2013-08-24 06:45:00,
2013-08-24 01:48:00,73.0,73.1,29.15,South,182,0.0,0.0,100,0.00,,,0.00,VWS V13.01,2013-08-24 06:48:00,
2013-08-24 01:49:00,73.0,73.1,29.15,South,182,0.0,0.0,100,0.00,,,0.00,VWS V13.01,2013-08-24 06:49:00,
2013-08-24 01:50:00,73.0,73.1,29.15,South,182,0.0,0.0,100,0.00,,,0.00,VWS V13.01,2013-08-24 06:50:00,
2013-08-24 01:53:00,73.2,73.2,29.15,South,182,0.0,0.0,100,0.00,,,0.00,VWS V13.01,2013-08-24 06:53:00,
2013-08-24 01:54:00,73.2,73.2,29.15,South,182,0.0,0.0,100,0.00,,,0.00,VWS V13.01,2013-08-24 06:54:00,
2013-08-24 01:55:00,73.2,73.2,29.15,South,182,0.0,0.0,100,0.00,,,0.00,VWS V13.01,2013-08-24 06:55:00,
2013-08-24 01:58:00,73.2,73.2,29.15,South,182,0.0,0.0,100,0.00,,,0.00,VWS V13.01,2013-08-24 06:58:00,
2013-08-24 01:59:00,73.2,73.2,29.15,South,182,0.0,0.0,100,0.00,,,0.00,VWS V13.01,2013-08-24 06:59:00,
2013-08-24 02:00:00,73.2,73.2,29.15,South,182,0.0,0.0,100,0.00,,,0.00,VWS V13.01,2013-08-24 07:00:00,
2013-08-24 02:03:00,73.2,73.2,29.15,South,182,0.0,0.0,100,0.00,,,0.00,VWS V13.01,2013-08-24 07:03:00,
2013-08-24 02:04:00,73.2,73.2,29.15,South,182,0.0,0.0,100,0.00,,,0.00,VWS V13.01,2013-08-24 07:04:00,
2013-08-24 02:06:00,73.0,73.1,29.15,South,182,0.0,0.0,100,0.00,,,0.00,VWS V13.01,2013-08-24 07:06:00,
2013-08-24 02:08:00,73.0,73.1,29.15,South,182,0.0,0.0,100,0.00,,,0.00,VWS V13.01,2013-08-24 07:08:00,
2013-08-24 02:09:00,73.0,73.1,29.15,South,182,0.0,0.0,100,0.00,,,0.00,VWS V13.01,2013-08-24 07:09:00,
2013-08-24 02:11:00,72.9,72.9,29.15,South,182,0.0,0.0,100,0.00,,,0.00,VWS V13.01,2013-08-24 07:11:00,
2013-08-24 02:14:00,73.0,73.1,29.15,South,182,0.0,0.0,100,0.00,,,0.00,VWS V13.01,2013-08-24 07:14:00,
2013-08-24 02:16:00,73.2,73.2,29.15,South,182,0.0,0.0,100,0.00,,,0.00,VWS V13.01,2013-08-24 07:16:00,
2013-08-24 02:19:00,73.2,73.2,29.15,South,182,0.0,0.0,100,0.00,,,0.00,VWS V13.01,2013-08-24 07:19:00,
2013-08-24 02:21:00,73.2,73.2,29.15,South,182,0.0,0.0,100,0.00,,,0.00,VWS V13.01,2013-08-24 07:21:00,
2013-08-24 02:24:00,73.0,73.1,29.15,South,182,0.0,0.0,100,0.00,,,0.00,VWS V13.01,2013-08-24 07:24:00,
2013-08-24 02:26:00,73.0,73.1,29.15,South,182,0.0,0.0,100,0.00,,,0.00,VWS V13.01,2013-08-24 07:26:00,
2013-08-24 02:29:00,72.9,72.9,29.15,South,182,0.0,0.0,100,0.00,,,0.00,VWS V13.01,2013-08-24 07:29:00,
2013-08-24 02:31:00,72.7,72.7,29.15,South,182,0.0,0.0,100,0.00,,,0.00,VWS V13.01,2013-08-24 07:31:00,
2013-08-24 02:34:00,72.7,72.7,29.15,South,182,0.0,0.0,100,0.00,,,0.00,VWS V13.01,2013-08-24 07:34:00,
2013-08-24 02:36:00,72.9,72.9,29.15,South,182,0.0,0.0,100,0.00,,,0.00,VWS V13.01,2013-08-24 07:36:00,
2013-08-24 02:39:00,72.9,72.9,29.15,South,182,0.0,0.0,100,0.00,,,0.00,VWS V13.01,2013-08-24 07:39:00,
2013-08-24 02:41:00,72.9,72.9,29.15,South,182,0.0,0.0,100,0.00,,,0.00,VWS V13.01,2013-08-24 07:41:00,
2013-08-24 02:44:00,73.0,73.1,29.15,South,182,0.0,0.0,100,0.00,,,0.00,VWS V13.01,2013-08-24 07:44:00,
2013-08-24 02:46:00,73.0,73.1,29.15,South,182,0.0,0.0,100,0.00,,,0.00,VWS V13.01,2013-08-24 07:46:00,
2013-08-24 02:49:00,72.9,72.9,29.15,South,182,0.0,0.0,100,0.00,,,0.00,VWS V13.01,2013-08-24 07:49:00,
2013-08-24 02:51:00,72.7,72.7,29.15,South,182,0.0,0.0,100,0.00,,,0.00,VWS V13.01,2013-08-24 07:51:00,
2013-08-24 02:54:00,72.5,72.5,29.15,South,182,0.0,0.0,100,0.00,,,0.00,VWS V13.01,2013-08-24 07:54:00,
2013-08-24 02:55:00,72.5,72.5,29.15,South,182,0.0,0.0,100,0.00,,,0.00,VWS V13.01,2013-08-24 07:55:00,
2013-08-24 02:56:00,72.3,72.3,29.15,South,182,0.0,0.0,100,0.00,,,0.00,VWS V13.01,2013-08-24 07:56:00,
2013-08-24 02:59:00,72.3,72.3,29.15,South,182,0.0,0.0,100,0.00,,,0.00,VWS V13.01,2013-08-24 07:59:00,
2013-08-24 03:00:00,72.5,72.5,29.15,South,182,0.0,0.0,100,0.00,,,0.00,VWS V13.01,2013-08-24 08:00:00,
2013-08-24 03:01:00,72.5,72.5,29.15,South,182,0.0,0.0,100,0.00,,,0.00,VWS V13.01,2013-08-24 08:01:00,
2013-08-24 03:04:00,72.7,72.7,29.15,South,182,0.0,0.0,100,0.00,,,0.00,VWS V13.01,2013-08-24 08:04:00,
2013-08-24 03:05:00,72.7,72.7,29.15,South,182,0.0,0.0,100,0.00,,,0.00,VWS V13.01,2013-08-24 08:05:00,
2013-08-24 03:06:00,72.7,72.7,29.15,South,182,0.0,0.0,100,0.00,,,0.00,VWS V13.01,2013-08-24 08:06:00,
2013-08-24 03:09:00,72.5,72.5,29.15,South,182,0.0,0.0,100,0.00,,,0.00,VWS V13.01,2013-08-24 08:09:00,
2013-08-24 03:10:00,72.5,72.5,29.15,South,182,0.0,0.0,100,0.00,,,0.00,VWS V13.01,2013-08-24 08:10:00,
2013-08-24 03:11:00,72.5,72.5,29.15,South,182,0.0,0.0,100,0.00,,,0.00,VWS V13.01,2013-08-24 08:11:00,
2013-08-24 03:14:00,72.3,72.3,29.15,South,182,0.0,0.0,100,0.00,,,0.00,VWS V13.01,2013-08-24 08:14:00,
2013-08-24 03:15:00,72.3,72.3,29.15,South,182,0.0,0.0,100,0.00,,,0.00,VWS V13.01,2013-08-24 08:15:00,
2013-08-24 03:16:00,72.3,72.3,29.15,South,182,0.0,0.0,100,0.00,,,0.00,VWS V13.01,2013-08-24 08:16:00,
2013-08-24 03:19:00,72.1,72.2,29.15,South,182,0.0,0.0,100,0.00,,,0.00,VWS V13.01,2013-08-24 08:19:00,
2013-08-24 03:20:00,72.1,72.2,29.15,South,182,0.0,0.0,100,0.00,,,0.00,VWS V13.01,2013-08-24 08:20:00,
2013-08-24 03:21:00,72.1,72.2,29.15,South,182,0.0,0.0,100,0.00,,,0.00,VWS V13.01,2013-08-24 08:21:00,
2013-08-24 03:24:00,72.1,72.2,29.15,South,182,0.0,0.0,100,0.00,,,0.00,VWS V13.01,2013-08-24 08:24:00,
2013-08-24 03:25:00,72.1,72.2,29.15,South,182,0.0,0.0,100,0.00,,,0.00,VWS V13.01,2013-08-24 08:25:00,
2013-08-24 03:26:00,72.1,72.2,29.15,South,182,0.0,0.0,100,0.00,,,0.00,VWS V13.01,2013-08-24 08:26:00,
2013-08-24 03:29:00,72.1,72.2,29.15,South,182,0.0,0.0,100,0.00,,,0.00,VWS V13.01,2013-08-24 08:29:00,
2013-08-24 03:30:00,72.1,72.2,29.15,South,182,0.0,0.0,100,0.00,,,0.00,VWS V13.01,2013-08-24 08:30:00,
2013-08-24 03:31:00,72.3,72.3,29.15,South,182,0.0,0.0,100,0.00,,,0.00,VWS V13.01,2013-08-24 08:31:00,
2013-08-24 03:34:00,72.1,72.2,29.15,South,182,0.0,0.0,100,0.00,,,0.00,VWS V13.01,2013-08-24 08:34:00,
2013-08-24 03:35:00,72.1,72.2,29.15,South,182,0.0,0.0,100,0.00,,,0.00,VWS V13.01,2013-08-24 08:35:00,
2013-08-24 03:37:00,72.0,72.0,29.15,South,182,0.0,0.0,100,0.00,,,0.00,VWS V13.01,2013-08-24 08:37:00,
2013-08-24 03:39:00,72.0,72.0,29.15,South,182,0.0,0.0,100,0.00,,,0.00,VWS V13.01,2013-08-24 08:39:00,
2013-08-24 03:40:00,72.0,72.0,29.15,South,182,0.0,0.0,100,0.00,,,0.00,VWS V13.01,2013-08-24 08:40:00,
2013-08-24 03:42:00,72.0,72.0,29.15,South,182,0.0,0.0,100,0.00,,,0.00,VWS V13.01,2013-08-24 08:42:00,
2013-08-24 03:44:00,72.0,72.0,29.15,South,182,0.0,0.0,100,0.00,,,0.00,VWS V13.01,2013-08-24 08:44:00,
2013-08-24 03:45:00,72.0,72.0,29.15,South,182,0.0,0.0,100,0.00,,,0.00,VWS V13.01,2013-08-24 08:45:00,
2013-08-24 03:47:00,72.0,72.0,29.15,South,182,0.0,0.0,100,0.00,,,0.00,VWS V13.01,2013-08-24 08:47:00,
2013-08-24 03:49:00,72.1,72.2,29.15,South,182,0.0,0.0,100,0.00,,,0.00,VWS V13.01,2013-08-24 08:49:00,
2013-08-24 03:50:00,72.1,72.2,29.15,South,182,0.0,0.0,100,0.00,,,0.00,VWS V13.01,2013-08-24 08:50:00,
2013-08-24 03:52:00,72.3,72.3,29.15,South,182,3.6,3.6,100,0.00,,,0.00,VWS V13.01,2013-08-24 08:52:00,
2013-08-24 03:54:00,72.1,72.2,29.15,South,182,0.0,0.0,100,0.00,,,0.00,VWS V13.01,2013-08-24 08:54:00,
2013-08-24 03:55:00,72.1,72.2,29.15,South,182,0.0,0.0,100,0.00,,,0.00,VWS V13.01,2013-08-24 08:55:00,
2013-08-24 03:57:00,72.3,72.3,29.15,South,182,0.0,0.0,100,0.00,,,0.00,VWS V13.01,2013-08-24 08:57:00,
2013-08-24 03:59:00,72.1,72.2,29.15,South,182,0.0,0.0,100,0.00,,,0.00,VWS V13.01,2013-08-24 08:59:00,
2013-08-24 04:00:00,72.1,72.2,29.15,South,182,0.0,0.0,100,0.00,,,0.00,VWS V13.01,2013-08-24 09:00:00,
2013-08-24 04:02:00,72.1,72.2,29.15,South,182,0.0,0.0,100,0.00,,,0.00,VWS V13.01,2013-08-24 09:02:00,
2013-08-24 04:04:00,72.0,72.0,29.15,South,182,0.0,0.0,100,0.00,,,0.00,VWS V13.01,2013-08-24 09:04:00,
2013-08-24 04:05:00,72.0,72.0,29.15,South,182,0.0,0.0,100,0.00,,,0.00,VWS V13.01,2013-08-24 09:05:00,
2013-08-24 04:07:00,72.0,72.0,29.15,South,182,0.0,0.0,100,0.00,,,0.00,VWS V13.01,2013-08-24 09:07:00,
2013-08-24 04:10:00,71.8,71.8,29.18,South,175,0.0,0.0,100,0.00,,,0.00,VWS V13.01,2013-08-24 09:10:00,
2013-08-24 04:12:00,71.8,71.8,29.18,South,175,0.0,0.0,100,0.00,,,0.00,VWS V13.01,2013-08-24 09:12:00,
2013-08-24 04:15:00,72.0,72.0,29.18,South,175,0.0,0.0,100,0.00,,,0.00,VWS V13.01,2013-08-24 09:15:00,
2013-08-24 04:17:00,72.1,72.2,29.18,South,176,0.0,0.0,100,0.00,,,0.00,VWS V13.01,2013-08-24 09:17:00,
2013-08-24 04:20:00,72.0,72.0,29.18,South,176,0.0,0.0,100,0.00,,,0.00,VWS V13.01,2013-08-24 09:20:00,
2013-08-24 04:21:00,72.0,72.0,29.18,South,176,0.0,0.0,100,0.00,,,0.00,VWS V13.01,2013-08-24 09:21:00,
2013-08-24 04:22:00,72.0,72.0,29.18,South,176,0.0,0.0,100,0.00,,,0.00,VWS V13.01,2013-08-24 09:22:00,
2013-08-24 04:25:00,71.8,71.8,29.18,South,176,0.0,0.0,100,0.00,,,0.00,VWS V13.01,2013-08-24 09:25:00,
2013-08-24 04:26:00,71.8,71.8,29.18,South,176,0.0,0.0,100,0.00,,,0.00,VWS V13.01,2013-08-24 09:26:00,
2013-08-24 04:27:00,71.6,71.6,29.18,South,176,0.0,0.0,100,0.00,,,0.00,VWS V13.01,2013-08-24 09:27:00,
2013-08-24 04:30:00,71.6,71.6,29.18,South,176,0.0,0.0,100,0.00,,,0.00,VWS V13.01,2013-08-24 09:30:00,
2013-08-24 04:31:00,71.6,71.6,29.18,South,176,0.0,0.0,100,0.00,,,0.00,VWS V13.01,2013-08-24 09:31:00,
2013-08-24 04:32:00,71.6,71.6,29.18,South,176,0.0,0.0,100,0.00,,,0.00,VWS V13.01,2013-08-24 09:32:00,
2013-08-24 04:35:00,71.6,71.6,29.18,South,176,0.0,0.0,100,0.00,,,0.00,VWS V13.01,2013-08-24 09:35:00,
2013-08-24 04:36:00,71.6,71.6,29.18,South,176,0.0,0.0,100,0.00,,,0.00,VWS V13.01,2013-08-24 09:36:00,
2013-08-24 04:38:00,71.6,71.6,29.18,South,176,0.0,0.0,100,0.00,,,0.00,VWS V13.01,2013-08-24 09:38:00,
2013-08-24 04:40:00,71.6,71.6,29.18,South,176,0.0,0.0,100,0.00,,,0.00,VWS V13.01,2013-08-24 09:40:00,
2013-08-24 04:41:00,71.8,71.8,29.18,South,177,0.0,0.0,100,0.00,,,0.00,VWS V13.01,2013-08-24 09:41:00,
2013-08-24 04:43:00,72.0,72.0,29.18,South,177,0.0,0.0,100,0.00,,,0.00,VWS V13.01,2013-08-24 09:43:00,
2013-08-24 04:45:00,72.1,72.2,29.18,South,181,0.0,0.0,100,0.00,,,0.00,VWS V13.01,2013-08-24 09:45:00,
2013-08-24 04:46:00,72.1,72.2,29.18,South,181,0.0,0.0,100,0.00,,,0.00,VWS V13.01,2013-08-24 09:46:00,
2013-08-24 04:48:00,72.0,72.0,29.18,South,181,0.0,0.0,100,0.00,,,0.00,VWS V13.01,2013-08-24 09:48:00,
2013-08-24 04:50:00,72.0,72.0,29.18,South,181,0.0,0.0,100,0.00,,,0.00,VWS V13.01,2013-08-24 09:50:00,
2013-08-24 04:51:00,72.0,72.0,29.18,South,181,0.0,0.0,100,0.00,,,0.00,VWS V13.01,2013-08-24 09:51:00,
2013-08-24 04:53:00,71.8,71.8,29.18,South,181,0.0,0.0,100,0.00,,,0.00,VWS V13.01,2013-08-24 09:53:00,
2013-08-24 04:55:00,71.8,71.8,29.18,South,181,0.0,0.0,100,0.00,,,0.00,VWS V13.01,2013-08-24 09:55:00,
2013-08-24 04:56:00,71.8,71.8,29.18,South,181,0.0,0.0,100,0.00,,,0.00,VWS V13.01,2013-08-24 09:56:00,
2013-08-24 04:57:00,71.8,71.8,29.18,South,181,0.0,0.0,100,0.00,,,0.00,VWS V13.01,2013-08-24 09:57:00,
2013-08-24 04:58:00,71.8,71.8,29.18,South,181,0.0,0.0,100,0.00,,,0.00,VWS V13.01,2013-08-24 09:58:00,
2013-08-24 05:00:00,71.8,71.8,29.18,South,182,0.0,0.0,100,0.00,,,0.00,VWS V13.01,2013-08-24 10:00:00,
2013-08-24 05:01:00,71.8,71.8,29.18,South,182,0.0,0.0,100,0.00,,,0.00,VWS V13.01,2013-08-24 10:01:00,
2013-08-24 05:02:00,71.8,71.8,29.18,South,182,0.0,0.0,100,0.00,,,0.00,VWS V13.01,2013-08-24 10:02:00,
2013-08-24 05:03:00,71.8,71.8,29.18,South,182,0.0,0.0,100,0.00,,,0.00,VWS V13.01,2013-08-24 10:03:00,
2013-08-24 05:05:00,72.0,72.0,29.18,South,182,0.0,0.0,100,0.00,,,0.00,VWS V13.01,2013-08-24 10:05:00,
2013-08-24 05:06:00,72.0,72.0,29.18,South,181,0.0,0.0,100,0.00,,,0.00,VWS V13.01,2013-08-24 10:06:00,
2013-08-24 05:07:00,72.1,72.2,29.18,South,180,4.9,4.9,100,0.00,,,0.00,VWS V13.01,2013-08-24 10:07:00,
2013-08-24 05:08:00,72.1,72.2,29.18,South,180,3.6,3.6,100,0.00,,,0.00,VWS V13.01,2013-08-24 10:08:00,
2013-08-24 05:10:00,72.1,72.2,29.18,South,180,4.0,4.0,100,0.00,,,0.00,VWS V13.01,2013-08-24 10:10:00,
2013-08-24 05:11:00,72.0,72.0,29.18,South,180,4.0,4.0,100,0.00,,,0.00,VWS V13.01,2013-08-24 10:11:00,
2013-08-24 05:12:00,72.0,72.0,29.18,South,179,4.0,4.0,100,0.00,,,0.00,VWS V13.01,2013-08-24 10:12:00,
2013-08-24 05:13:00,71.8,71.8,29.18,South,179,3.1,3.1,100,0.00,,,0.00,VWS V13.01,2013-08-24 10:13:00,
2013-08-24 05:15:00,71.8,71.8,29.18,South,179,4.0,4.0,100,0.00,,,0.00,VWS V13.01,2013-08-24 10:15:00,
2013-08-24 05:16:00,71.8,71.8,29.18,South,179,3.6,3.6,100,0.00,,,0.00,VWS V13.01,2013-08-24 10:16:00,
2013-08-24 05:17:00,71.8,71.8,29.18,South,179,3.6,3.6,100,0.00,,,0.00,VWS V13.01,2013-08-24 10:17:00,
2013-08-24 05:18:00,71.8,71.8,29.18,South,179,3.1,3.1,100,0.00,,,0.00,VWS V13.01,2013-08-24 10:18:00,
2013-08-24 05:20:00,72.0,72.0,29.18,South,179,4.5,4.5,100,0.00,,,0.00,VWS V13.01,2013-08-24 10:20:00,
2013-08-24 05:21:00,72.0,72.0,29.18,South,179,4.0,4.0,100,0.00,,,0.00,VWS V13.01,2013-08-24 10:21:00,
2013-08-24 05:22:00,71.8,71.8,29.18,South,179,3.1,3.1,100,0.00,,,0.00,VWS V13.01,2013-08-24 10:22:00,
2013-08-24 05:23:00,71.8,71.8,29.18,South,183,4.9,4.9,100,0.00,,,0.00,VWS V13.01,2013-08-24 10:23:00,
2013-08-24 05:25:00,71.8,71.8,29.18,South,183,3.6,3.6,100,0.00,,,0.00,VWS V13.01,2013-08-24 10:25:00,
2013-08-24 05:26:00,72.0,72.0,29.18,South,183,3.6,3.6,100,0.00,,,0.00,VWS V13.01,2013-08-24 10:26:00,
2013-08-24 05:27:00,72.0,72.0,29.18,South,183,4.0,4.0,100,0.00,,,0.00,VWS V13.01,2013-08-24 10:27:00,
2013-08-24 05:28:00,72.0,72.0,29.18,South,183,4.0,4.0,100,0.00,,,0.00,VWS V13.01,2013-08-24 10:28:00,
2013-08-24 05:30:00,72.0,72.0,29.18,South,183,3.6,3.6,100,0.00,,,0.00,VWS V13.01,2013-08-24 10:30:00,
2013-08-24 05:31:00,72.0,72.0,29.18,South,183,4.0,4.0,100,0.00,,,0.00,VWS V13.01,2013-08-24 10:31:00,
2013-08-24 05:32:00,72.0,72.0,29.18,South,183,4.0,4.0,100,0.00,,,0.00,VWS V13.01,2013-08-24 10:32:00,
2013-08-24 05:33:00,72.0,72.0,29.18,South,183,3.6,3.6,100,0.00,,,0.00,VWS V13.01,2013-08-24 10:33:00,
2013-08-24 05:35:00,71.8,71.8,29.18,South,183,4.0,4.0,100,0.00,,,0.00,VWS V13.01,2013-08-24 10:35:00,
2013-08-24 05:36:00,71.8,71.8,29.18,South,183,4.9,4.9,100,0.00,,,0.00,VWS V13.01,2013-08-24 10:36:00,
2013-08-24 05:37:00,71.8,71.8,29.18,South,180,3.6,3.6,100,0.00,,,0.00,VWS V13.01,2013-08-24 10:37:00,
2013-08-24 05:38:00,71.8,71.8,29.18,South,180,4.0,4.0,100,0.00,,,0.00,VWS V13.01,2013-08-24 10:38:00,
2013-08-24 05:40:00,71.8,71.8,29.18,South,181,3.6,3.6,100,0.00,,,0.00,VWS V13.01,2013-08-24 10:40:00,
2013-08-24 05:41:00,71.8,71.8,29.18,South,181,4.0,4.0,100,0.00,,,0.00,VWS V13.01,2013-08-24 10:41:00,
2013-08-24 05:43:00,71.8,71.8,29.18,South,181,5.8,5.8,100,0.00,,,0.00,VWS V13.01,2013-08-24 10:43:00,
2013-08-24 05:45:00,71.8,71.8,29.18,South,185,5.4,5.4,100,0.00,,,0.00,VWS V13.01,2013-08-24 10:45:00,
2013-08-24 05:46:00,72.0,72.0,29.18,South,182,6.3,6.3,100,0.00,,,0.00,VWS V13.01,2013-08-24 10:46:00,
2013-08-24 05:48:00,72.0,72.0,29.18,South,181,5.4,5.4,100,0.00,,,0.00,VWS V13.01,2013-08-24 10:48:00,
2013-08-24 05:50:00,72.0,72.0,29.18,South,181,4.9,4.9,100,0.00,,,0.00,VWS V13.01,2013-08-24 10:50:00,
2013-08-24 05:51:00,72.0,72.0,29.18,South,181,5.4,5.4,100,0.00,,,0.00,VWS V13.01,2013-08-24 10:51:00,
2013-08-24 05:53:00,72.0,72.0,29.18,South,183,4.5,4.5,100,0.00,,,0.00,VWS V13.01,2013-08-24 10:53:00,
2013-08-24 05:54:00,72.0,72.0,29.18,South,183,4.0,4.0,100,0.00,,,0.00,VWS V13.01,2013-08-24 10:54:00,
2013-08-24 05:55:00,72.0,72.0,29.18,South,183,5.4,5.4,100,0.00,,,0.00,VWS V13.01,2013-08-24 10:55:00,
2013-08-24 05:56:00,72.1,72.2,29.18,South,183,4.0,4.0,100,0.00,,,0.00,VWS V13.01,2013-08-24 10:56:00,
2013-08-24 05:58:00,72.1,72.2,29.18,South,176,5.4,5.4,100,0.00,,,0.00,VWS V13.01,2013-08-24 10:58:00,
2013-08-24 05:59:00,72.0,72.0,29.18,South,176,4.0,4.0,100,0.00,,,0.00,VWS V13.01,2013-08-24 10:59:00,
2013-08-24 06:01:00,72.0,72.0,29.18,South,176,2.7,2.7,100,0.00,,,0.00,VWS V13.01,2013-08-24 11:01:00,
2013-08-24 06:02:00,71.8,71.8,29.18,South,176,0.0,0.0,100,0.00,,,0.00,VWS V13.01,2013-08-24 11:02:00,
2013-08-24 06:03:00,71.8,71.8,29.18,SSW,193,0.0,0.0,100,0.00,,,0.00,VWS V13.01,2013-08-24 11:03:00,
2013-08-24 06:04:00,71.8,71.8,29.18,South,179,4.9,4.9,100,0.00,,,0.00,VWS V13.01,2013-08-24 11:04:00,
2013-08-24 06:06:00,71.8,71.8,29.18,South,179,4.9,4.9,100,0.00,,,0.00,VWS V13.01,2013-08-24 11:06:00,
2013-08-24 06:07:00,71.8,71.8,29.18,South,179,4.5,4.5,100,0.00,,,0.00,VWS V13.01,2013-08-24 11:07:00,
2013-08-24 06:08:00,71.8,71.8,29.18,South,183,4.9,4.9,100,0.00,,,0.00,VWS V13.01,2013-08-24 11:08:00,
2013-08-24 06:09:00,71.6,71.6,29.18,South,183,4.0,4.0,100,0.00,,,0.00,VWS V13.01,2013-08-24 11:09:00,
2013-08-24 06:11:00,71.6,71.6,29.18,South,183,3.6,3.6,100,0.00,,,0.00,VWS V13.01,2013-08-24 11:11:00,
2013-08-24 06:12:00,71.4,71.4,29.18,South,183,4.0,4.0,100,0.00,,,0.00,VWS V13.01,2013-08-24 11:12:00,
2013-08-24 06:13:00,71.4,71.4,29.18,South,183,4.0,4.0,100,0.00,,,0.00,VWS V13.01,2013-08-24 11:13:00,
2013-08-24 06:14:00,71.4,71.4,29.18,South,183,4.0,4.0,100,0.00,,,0.00,VWS V13.01,2013-08-24 11:14:00,
2013-08-24 06:16:00,71.4,71.4,29.18,South,181,3.6,3.6,100,0.00,,,0.00,VWS V13.01,2013-08-24 11:16:00,
2013-08-24 06:17:00,71.4,71.4,29.18,South,189,2.7,2.7,100,0.00,,,0.00,VWS V13.01,2013-08-24 11:17:00,
2013-08-24 06:18:00,71.6,71.6,29.18,South,172,4.0,4.0,100,0.00,,,0.00,VWS V13.01,2013-08-24 11:18:00,
2013-08-24 06:19:00,71.6,71.6,29.18,South,185,4.9,4.9,100,0.00,,,0.00,VWS V13.01,2013-08-24 11:19:00,
2013-08-24 06:21:00,71.6,71.6,29.18,South,188,4.0,4.0,100,0.00,,,0.00,VWS V13.01,2013-08-24 11:21:00,
2013-08-24 06:22:00,71.6,71.6,29.18,South,169,3.1,3.1,100,0.00,,,0.00,VWS V13.01,2013-08-24 11:22:00,
2013-08-24 06:23:00,71.6,71.6,29.18,South,186,4.0,4.0,100,0.00,,,0.00,VWS V13.01,2013-08-24 11:23:00,
2013-08-24 06:24:00,71.4,71.4,29.18,South,169,3.1,3.1,100,0.00,,,0.00,VWS V13.01,2013-08-24 11:24:00,
2013-08-24 06:26:00,71.6,71.6,29.18,South,171,3.6,3.6,100,0.00,,,0.00,VWS V13.01,2013-08-24 11:26:00,
2013-08-24 06:27:00,71.4,71.4,29.18,South,176,0.0,0.0,100,0.00,,,0.00,VWS V13.01,2013-08-24 11:27:00,
2013-08-24 06:28:00,71.4,71.4,29.18,South,176,4.0,4.0,100,0.00,,,0.00,VWS V13.01,2013-08-24 11:28:00,
2013-08-24 06:29:00,71.4,71.4,29.18,South,177,3.6,3.6,100,0.00,,,0.00,VWS V13.01,2013-08-24 11:29:00,
2013-08-24 06:31:00,71.4,71.4,29.18,South,182,3.1,3.1,100,0.00,,,0.00,VWS V13.01,2013-08-24 11:31:00,
2013-08-24 06:32:00,71.4,71.4,29.18,South,184,4.9,4.9,100,0.00,,,0.00,VWS V13.01,2013-08-24 11:32:00,
2013-08-24 06:33:00,71.4,71.4,29.18,South,185,4.0,4.0,100,0.00,,,0.00,VWS V13.01,2013-08-24 11:33:00,
2013-08-24 06:34:00,71.4,71.4,29.18,South,182,4.9,4.9,100,0.00,,,0.00,VWS V13.01,2013-08-24 11:34:00,
2013-08-24 06:36:00,71.4,71.4,29.18,South,187,4.9,4.9,100,0.00,,,0.00,VWS V13.01,2013-08-24 11:36:00,
2013-08-24 06:37:00,71.4,71.4,29.18,South,184,4.5,4.5,100,0.00,,,0.00,VWS V13.01,2013-08-24 11:37:00,
2013-08-24 06:38:00,71.4,71.4,29.18,South,180,5.4,5.4,100,0.00,,,0.00,VWS V13.01,2013-08-24 11:38:00,
2013-08-24 06:39:00,71.4,71.4,29.18,South,180,5.4,5.4,100,0.00,,,0.00,VWS V13.01,2013-08-24 11:39:00,
2013-08-24 06:41:00,71.8,71.8,29.18,South,183,5.4,5.4,100,0.00,,,0.00,VWS V13.01,2013-08-24 11:41:00,
2013-08-24 06:42:00,71.8,71.8,29.18,South,184,5.8,5.8,100,0.00,,,0.00,VWS V13.01,2013-08-24 11:42:00,
2013-08-24 06:43:00,71.8,71.8,29.18,South,184,4.5,4.5,100,0.00,,,0.00,VWS V13.01,2013-08-24 11:43:00,
2013-08-24 06:44:00,71.8,71.8,29.18,South,183,4.9,4.9,100,0.00,,,0.00,VWS V13.01,2013-08-24 11:44:00,
2013-08-24 06:46:00,71.6,71.6,29.18,South,189,5.4,5.4,100,0.00,,,0.00,VWS V13.01,2013-08-24 11:46:00,
2013-08-24 06:47:00,71.6,71.6,29.18,South,179,4.9,4.9,100,0.00,,,0.00,VWS V13.01,2013-08-24 11:47:00,
2013-08-24 06:48:00,71.6,71.6,29.18,South,184,4.9,4.9,100,0.00,,,0.00,VWS V13.01,2013-08-24 11:48:00,
2013-08-24 06:49:00,71.6,71.6,29.18,South,184,3.1,3.1,100,0.00,,,0.00,VWS V13.01,2013-08-24 11:49:00,
2013-08-24 06:51:00,71.6,71.6,29.18,South,181,4.0,4.0,100,0.00,,,0.00,VWS V13.01,2013-08-24 11:51:00,
2013-08-24 06:52:00,71.6,71.6,29.18,South,183,4.0,4.0,100,0.00,,,0.00,VWS V13.01,2013-08-24 11:52:00,
2013-08-24 06:54:00,71.6,71.6,29.18,South,180,4.0,4.0,100,0.00,,,0.00,VWS V13.01,2013-08-24 11:54:00,
2013-08-24 06:56:00,71.8,71.8,29.18,South,180,3.1,3.1,100,0.00,,,0.00,VWS V13.01,2013-08-24 11:56:00,
2013-08-24 06:57:00,71.8,71.8,29.18,South,180,3.6,3.6,100,0.00,,,0.00,VWS V13.01,2013-08-24 11:57:00,
2013-08-24 06:59:00,72.0,72.0,29.18,South,180,4.0,4.0,100,0.00,,,0.00,VWS V13.01,2013-08-24 11:59:00,
2013-08-24 07:01:00,72.1,72.2,29.18,South,179,3.6,3.6,100,0.00,,,0.00,VWS V13.01,2013-08-24 12:01:00,
2013-08-24 07:02:00,72.3,72.3,29.18,South,179,4.0,4.0,100,0.00,,,0.00,VWS V13.01,2013-08-24 12:02:00,
2013-08-24 07:04:00,72.5,72.5,29.18,South,189,3.6,3.6,100,0.00,,,0.00,VWS V13.01,2013-08-24 12:04:00,
2013-08-24 07:05:00,72.5,72.5,29.18,South,185,4.0,4.0,100,0.00,,,0.00,VWS V13.01,2013-08-24 12:05:00,
2013-08-24 07:06:00,72.7,72.7,29.18,SSW,195,3.6,3.6,100,0.00,,,0.00,VWS V13.01,2013-08-24 12:06:00,
2013-08-24 07:07:00,72.9,72.9,29.18,South,184,4.0,4.0,100,0.00,,,0.00,VWS V13.01,2013-08-24 12:07:00,
2013-08-24 07:09:00,72.9,72.9,29.18,South,176,3.6,3.6,100,0.00,,,0.00,VWS V13.01,2013-08-24 12:09:00,
2013-08-24 07:10:00,72.9,72.9,29.21,South,180,4.0,4.0,100,0.00,,,0.00,VWS V13.01,2013-08-24 12:10:00,
2013-08-24 07:11:00,73.0,73.1,29.21,South,190,6.3,6.3,100,0.00,,,0.00,VWS V13.01,2013-08-24 12:11:00,
2013-08-24 07:12:00,73.0,73.1,29.21,South,183,2.7,2.7,100,0.00,,,0.00,VWS V13.01,2013-08-24 12:12:00,
2013-08-24 07:14:00,73.0,73.1,29.21,South,178,4.0,4.0,100,0.00,,,0.00,VWS V13.01,2013-08-24 12:14:00,
2013-08-24 07:15:00,73.2,73.2,29.21,South,185,3.6,3.6,100,0.00,,,0.00,VWS V13.01,2013-08-24 12:15:00,
2013-08-24 07:16:00,73.4,73.4,29.21,South,181,3.1,3.1,100,0.00,,,0.00,VWS V13.01,2013-08-24 12:16:00,
2013-08-24 07:17:00,73.4,73.4,29.21,South,182,4.9,4.9,100,0.00,,,0.00,VWS V13.01,2013-08-24 12:17:00,
2013-08-24 07:19:00,73.4,73.4,29.21,South,182,2.7,2.7,100,0.00,,,0.00,VWS V13.01,2013-08-24 12:19:00,
2013-08-24 07:20:00,73.6,73.6,29.21,South,182,3.6,3.6,100,0.00,,,0.00,VWS V13.01,2013-08-24 12:20:00,
2013-08-24 07:21:00,73.8,73.8,29.21,South,182,3.6,3.6,100,0.00,,,0.00,VWS V13.01,2013-08-24 12:21:00,
2013-08-24 07:22:00,73.9,73.9,29.21,South,182,4.9,4.9,100,0.00,,,0.00,VWS V13.01,2013-08-24 12:22:00,
2013-08-24 07:24:00,74.1,74.1,29.21,South,181,4.0,4.0,100,0.00,,,0.00,VWS V13.01,2013-08-24 12:24:00,
2013-08-24 07:25:00,74.3,74.3,29.21,South,182,4.0,4.0,100,0.00,,,0.00,VWS V13.01,2013-08-24 12:25:00,
2013-08-24 07:26:00,74.3,74.3,29.21,South,185,5.4,5.4,100,0.00,,,0.00,VWS V13.01,2013-08-24 12:26:00,
2013-08-24 07:27:00,74.1,74.1,29.21,South,179,4.0,4.0,100,0.00,,,0.00,VWS V13.01,2013-08-24 12:27:00,
2013-08-24 07:29:00,74.1,74.1,29.21,South,180,6.3,6.3,100,0.00,,,0.00,VWS V13.01,2013-08-24 12:29:00,
2013-08-24 07:30:00,74.3,74.3,29.21,South,176,7.2,7.2,100,0.00,,,0.00,VWS V13.01,2013-08-24 12:30:00,
2013-08-24 07:31:00,74.3,74.3,29.21,SSE,151,5.8,5.8,100,0.00,,,0.00,VWS V13.01,2013-08-24 12:31:00,
2013-08-24 07:32:00,74.1,74.1,29.21,South,182,5.4,5.4,100,0.00,,,0.00,VWS V13.01,2013-08-24 12:32:00,
2013-08-24 07:33:00,74.1,74.1,29.21,South,182,5.4,5.4,100,0.00,,,0.00,VWS V13.01,2013-08-24 12:33:00,
2013-08-24 07:34:00,74.3,74.3,29.21,South,183,6.3,6.3,100,0.00,,,0.00,VWS V13.01,2013-08-24 12:34:00,
2013-08-24 07:35:00,74.1,74.1,29.21,South,178,6.3,6.3,100,0.00,,,0.00,VWS V13.01,2013-08-24 12:35:00,
2013-08-24 07:36:00,74.5,74.5,29.21,SSW,194,5.4,5.4,100,0.00,,,0.00,VWS V13.01,2013-08-24 12:36:00,
2013-08-24 07:37:00,74.5,74.5,29.21,South,186,5.8,5.8,100,0.00,,,0.00,VWS V13.01,2013-08-24 12:37:00,
2013-08-24 07:38:00,74.5,74.5,29.21,SSE,166,4.0,4.0,100,0.00,,,0.00,VWS V13.01,2013-08-24 12:38:00,
2013-08-24 07:39:00,74.7,74.7,29.21,South,188,4.9,4.9,100,0.00,,,0.00,VWS V13.01,2013-08-24 12:39:00,
2013-08-24 07:40:00,74.8,74.8,29.21,South,180,5.4,5.4,100,0.00,,,0.00,VWS V13.01,2013-08-24 12:40:00,
2013-08-24 07:41:00,75.0,75.0,29.21,South,178,5.4,5.4,100,0.00,,,0.00,VWS V13.01,2013-08-24 12:41:00,
2013-08-24 07:42:00,75.0,75.0,29.21,South,186,5.8,5.8,100,0.00,,,0.00,VWS V13.01,2013-08-24 12:42:00,
2013-08-24 07:43:00,75.0,75.0,29.21,South,187,5.8,5.8,100,0.00,,,0.00,VWS V13.01,2013-08-24 12:43:00,
2013-08-24 07:44:00,75.6,75.6,29.21,SSW,199,5.8,5.8,100,0.00,,,0.00,VWS V13.01,2013-08-24 12:44:00,
2013-08-24 07:45:00,75.6,75.6,29.21,South,178,6.3,6.3,100,0.00,,,0.00,VWS V13.01,2013-08-24 12:45:00,
2013-08-24 07:47:00,75.4,75.4,29.21,South,182,6.3,6.3,100,0.00,,,0.00,VWS V13.01,2013-08-24 12:47:00,
2013-08-24 07:48:00,75.4,75.4,29.21,South,190,6.3,6.3,100,0.00,,,0.00,VWS V13.01,2013-08-24 12:48:00,
2013-08-24 07:49:00,75.7,75.8,29.21,SSE,162,4.9,4.9,100,0.00,,,0.00,VWS V13.01,2013-08-24 12:49:00,
2013-08-24 07:50:00,75.9,75.9,29.21,South,181,5.4,5.4,100,0.00,,,0.00,VWS V13.01,2013-08-24 12:50:00,
2013-08-24 07:52:00,75.4,75.4,29.21,South,183,7.6,7.6,100,0.00,,,0.00,VWS V13.01,2013-08-24 12:52:00,
2013-08-24 07:53:00,75.6,75.6,29.21,South,180,5.4,5.4,100,0.00,,,0.00,VWS V13.01,2013-08-24 12:53:00,
2013-08-24 07:54:00,75.7,75.8,29.21,South,180,8.1,8.1,100,0.00,,,0.00,VWS V13.01,2013-08-24 12:54:00,
2013-08-24 07:55:00,75.7,75.8,29.21,SSW,197,5.4,5.4,100,0.00,,,0.00,VWS V13.01,2013-08-24 12:55:00,
2013-08-24 07:57:00,75.7,75.8,29.21,South,184,5.8,5.8,100,0.00,,,0.00,VWS V13.01,2013-08-24 12:57:00,
2013-08-24 07:58:00,75.9,75.9,29.21,South,186,7.6,7.6,100,0.00,,,0.00,VWS V13.01,2013-08-24 12:58:00,
2013-08-24 07:59:00,76.3,76.3,29.21,South,180,6.3,6.3,100,0.00,,,0.00,VWS V13.01,2013-08-24 12:59:00,
2013-08-24 08:00:00,76.3,76.3,29.21,South,181,5.8,5.8,100,0.00,,,0.00,VWS V13.01,2013-08-24 13:00:00,
2013-08-24 08:02:00,76.1,76.1,29.21,South,182,6.3,6.3,100,0.00,,,0.00,VWS V13.01,2013-08-24 13:02:00,
2013-08-24 08:03:00,76.1,76.1,29.21,SSE,161,5.4,5.4,100,0.00,,,0.00,VWS V13.01,2013-08-24 13:03:00,
2013-08-24 08:05:00,76.3,76.3,29.21,SSW,200,6.3,6.3,100,0.00,,,0.00,VWS V13.01,2013-08-24 13:05:00,
2013-08-24 08:06:00,76.5,76.5,29.21,South,183,5.8,5.8,100,0.00,,,0.00,VWS V13.01,2013-08-24 13:06:00,
2013-08-24 08:07:00,77.0,77.0,29.21,South,180,2.7,2.7,100,0.00,,,0.00,VWS V13.01,2013-08-24 13:07:00,
2013-08-24 08:08:00,77.4,77.4,29.21,SSW,196,2.7,2.7,100,0.00,,,0.00,VWS V13.01,2013-08-24 13:08:00,
2013-08-24 08:10:00,77.5,77.6,29.21,South,184,5.4,5.4,100,0.00,,,0.00,VWS V13.01,2013-08-24 13:10:00,
2013-08-24 08:11:00,77.9,77.9,29.21,South,178,4.0,4.0,100,0.00,,,0.00,VWS V13.01,2013-08-24 13:11:00,
2013-08-24 08:12:00,78.4,78.4,29.21,SSE,164,5.4,5.4,100,0.00,,,0.00,VWS V13.01,2013-08-24 13:12:00,
2013-08-24 08:13:00,78.4,78.4,29.21,South,185,6.3,6.3,100,0.00,,,0.00,VWS V13.01,2013-08-24 13:13:00,
2013-08-24 08:15:00,77.7,77.7,29.21,South,169,4.9,4.9,100,0.00,,,0.00,VWS V13.01,2013-08-24 13:15:00,
2013-08-24 08:16:00,78.3,78.3,29.21,South,185,4.9,4.9,100,0.00,,,0.00,VWS V13.01,2013-08-24 13:16:00,
2013-08-24 08:17:00,78.6,78.6,29.21,South,188,6.3,6.3,100,0.00,,,0.00,VWS V13.01,2013-08-24 13:17:00,
2013-08-24 08:18:00,78.4,78.4,29.21,South,182,6.3,6.3,100,0.00,,,0.00,VWS V13.01,2013-08-24 13:18:00,
2013-08-24 08:20:00,77.9,77.9,29.21,South,181,8.1,8.1,100,0.00,,,0.00,VWS V13.01,2013-08-24 13:20:00,
2013-08-24 08:21:00,78.4,78.4,29.21,South,171,4.0,4.0,100,0.00,,,0.00,VWS V13.01,2013-08-24 13:21:00,
2013-08-24 08:22:00,78.4,78.4,29.21,South,181,8.3,8.3,100,0.00,,,0.00,VWS V13.01,2013-08-24 13:22:00,
2013-08-24 08:23:00,78.4,78.4,29.21,South,182,7.6,7.6,100,0.00,,,0.00,VWS V13.01,2013-08-24 13:23:00,
2013-08-24 08:25:00,78.6,78.6,29.21,South,184,6.7,6.7,100,0.00,,,0.00,VWS V13.01,2013-08-24 13:25:00,
2013-08-24 08:26:00,79.0,79.0,29.21,SSW,200,5.4,5.4,100,0.00,,,0.00,VWS V13.01,2013-08-24 13:26:00,
2013-08-24 08:28:00,78.6,78.6,29.21,South,178,8.3,8.3,100,0.00,,,0.00,VWS V13.01,2013-08-24 13:28:00,
2013-08-24 08:30:00,79.2,79.2,29.21,South,184,7.2,7.2,100,0.00,,,0.00,VWS V13.01,2013-08-24 13:30:00,
2013-08-24 08:31:00,79.2,79.2,29.21,SSW,195,6.3,6.3,100,0.00,,,0.00,VWS V13.01,2013-08-24 13:31:00,
2013-08-24 08:33:00,79.9,79.0,29.21,South,183,5.8,5.8,97,0.00,,,0.00,VWS V13.01,2013-08-24 13:33:00,
2013-08-24 08:35:00,79.3,78.4,29.21,South,177,8.3,8.3,97,0.00,,,0.00,VWS V13.01,2013-08-24 13:35:00,
2013-08-24 08:36:00,79.0,78.1,29.21,South,184,8.7,8.7,97,0.00,,,0.00,VWS V13.01,2013-08-24 13:36:00,
2013-08-24 08:38:00,79.0,78.1,29.21,SSW,192,8.7,8.7,97,0.00,,,0.00,VWS V13.01,2013-08-24 13:38:00,
2013-08-24 08:40:00,79.2,78.2,29.21,South,181,6.3,6.3,97,0.00,,,0.00,VWS V13.01,2013-08-24 13:40:00,
2013-08-24 08:41:00,79.3,78.4,29.21,South,176,5.8,5.8,97,0.00,,,0.00,VWS V13.01,2013-08-24 13:41:00,
2013-08-24 08:43:00,79.9,79.0,29.21,South,176,8.1,8.1,97,0.00,,,0.00,VWS V13.01,2013-08-24 13:43:00,
2013-08-24 08:45:00,80.4,73.3,29.21,South,182,6.7,6.7,79,0.00,,,0.00,VWS V13.01,2013-08-24 13:45:00,
2013-08-24 08:46:00,80.1,79.1,29.21,South,189,8.1,8.1,97,0.00,,,0.00,VWS V13.01,2013-08-24 13:46:00,
2013-08-24 08:48:00,80.1,73.0,29.21,South,181,8.7,8.7,79,0.00,,,0.00,VWS V13.01,2013-08-24 13:48:00,
2013-08-24 08:50:00,80.8,73.7,29.21,South,180,7.6,7.6,79,0.00,,,0.00,VWS V13.01,2013-08-24 13:50:00,
2013-08-24 08:51:00,80.6,73.5,29.21,South,187,8.3,8.3,79,0.00,,,0.00,VWS V13.01,2013-08-24 13:51:00,
2013-08-24 08:53:00,81.0,73.8,29.21,South,181,7.6,7.6,79,0.00,,,0.00,VWS V13.01,2013-08-24 13:53:00,
2013-08-24 08:55:00,81.5,74.4,29.21,South,188,5.4,5.4,79,0.00,,,0.00,VWS V13.01,2013-08-24 13:55:00,
2013-08-24 08:56:00,82.2,75.1,29.21,SSE,158,5.8,5.8,79,0.00,,,0.00,VWS V13.01,2013-08-24 13:56:00,
2013-08-24 08:58:00,82.2,67.4,29.21,NE,56,5.8,5.8,61,0.00,,,0.00,VWS V13.01,2013-08-24 13:58:00,
2013-08-24 09:01:00,81.9,67.1,29.21,South,186,8.3,8.3,61,0.00,,,0.00,VWS V13.01,2013-08-24 14:01:00,
2013-08-24 09:02:00,82.0,67.3,29.21,South,190,8.1,8.1,61,0.00,,,0.00,VWS V13.01,2013-08-24 14:02:00,
2013-08-24 09:03:00,81.9,67.1,29.21,South,185,7.6,7.6,61,0.00,,,0.00,VWS V13.01,2013-08-24 14:03:00,
2013-08-24 09:06:00,81.9,67.1,29.21,SSW,192,8.1,8.1,61,0.00,,,0.00,VWS V13.01,2013-08-24 14:06:00,
2013-08-24 09:07:00,82.2,67.4,29.21,South,173,5.4,5.4,61,0.00,,,0.00,VWS V13.01,2013-08-24 14:07:00,
2013-08-24 09:08:00,82.0,67.3,29.21,South,179,5.4,5.4,61,0.00,,,0.00,VWS V13.01,2013-08-24 14:08:00,
2013-08-24 09:09:00,82.6,67.8,29.21,SSW,204,4.0,4.0,61,0.00,,,0.00,VWS V13.01,2013-08-24 14:09:00,
2013-08-24 09:11:00,82.8,67.9,29.21,South,178,5.8,5.8,61,0.00,,,0.00,VWS V13.01,2013-08-24 14:11:00,
2013-08-24 09:12:00,82.8,67.9,29.21,South,179,6.3,6.3,61,0.00,,,0.00,VWS V13.01,2013-08-24 14:12:00,
2013-08-24 09:13:00,82.9,68.1,29.21,South,169,7.6,7.6,61,0.00,,,0.00,VWS V13.01,2013-08-24 14:13:00,
2013-08-24 09:14:00,82.9,68.1,29.21,South,181,6.7,6.7,61,0.00,,,0.00,VWS V13.01,2013-08-24 14:14:00,
2013-08-24 09:16:00,82.8,67.9,29.21,South,186,7.6,7.6,61,0.00,,,0.00,VWS V13.01,2013-08-24 14:16:00,
2013-08-24 09:17:00,82.9,68.1,29.21,South,178,6.7,6.7,61,0.00,,,0.00,VWS V13.01,2013-08-24 14:17:00,
2013-08-24 09:18:00,83.8,69.0,29.21,SSE,164,7.6,7.6,61,0.00,,,0.00,VWS V13.01,2013-08-24 14:18:00,
2013-08-24 09:19:00,83.8,69.0,29.21,South,175,6.3,6.3,61,0.00,,,0.00,VWS V13.01,2013-08-24 14:19:00,
2013-08-24 09:21:00,84.4,66.5,29.21,SSW,209,4.0,4.0,55,0.00,,,0.00,VWS V13.01,2013-08-24 14:21:00,
2013-08-24 09:22:00,85.1,60.1,29.21,South,174,8.3,8.3,43,0.00,,,0.00,VWS V13.01,2013-08-24 14:22:00,
2013-08-24 09:23:00,84.0,69.1,29.21,South,190,7.6,7.6,61,0.00,,,0.00,VWS V13.01,2013-08-24 14:23:00,
2013-08-24 09:24:00,84.2,66.3,29.21,South,179,7.6,7.6,55,0.00,,,0.00,VWS V13.01,2013-08-24 14:24:00,
2013-08-24 09:26:00,84.7,66.8,29.21,South,189,8.3,8.3,55,0.00,,,0.00,VWS V13.01,2013-08-24 14:26:00,
2013-08-24 09:27:00,85.1,67.1,29.21,South,180,5.8,5.8,55,0.00,,,0.00,VWS V13.01,2013-08-24 14:27:00,
2013-08-24 09:28:00,85.5,67.5,29.21,SSE,154,5.8,5.8,55,0.00,,,0.00,VWS V13.01,2013-08-24 14:28:00,
2013-08-24 09:29:00,85.8,60.8,29.21,South,178,6.3,6.3,43,0.00,,,0.00,VWS V13.01,2013-08-24 14:29:00,
2013-08-24 09:31:00,86.4,61.2,29.21,SSW,204,6.3,6.3,43,0.00,,,0.00,VWS V13.01,2013-08-24 14:31:00,
2013-08-24 09:32:00,86.9,61.7,29.21,SSW,194,6.3,6.3,43,0.00,,,0.00,VWS V13.01,2013-08-24 14:32:00,
2013-08-24 09:33:00,86.0,60.9,29.21,South,187,8.1,8.1,43,0.00,,,0.00,VWS V13.01,2013-08-24 14:33:00,
2013-08-24 09:34:00,85.6,60.6,29.21,ESE,110,6.3,6.3,43,0.00,,,0.00,VWS V13.01,2013-08-24 14:34:00,
2013-08-24 09:36:00,85.6,60.6,29.21,South,182,8.3,8.3,43,0.00,,,0.00,VWS V13.01,2013-08-24 14:36:00,
2013-08-24 09:37:00,84.7,59.8,29.21,South,182,8.7,8.7,43,0.00,,,0.00,VWS V13.01,2013-08-24 14:37:00,
2013-08-24 09:38:00,83.7,58.8,29.21,South,176,8.7,8.7,43,0.00,,,0.00,VWS V13.01,2013-08-24 14:38:00,
2013-08-24 09:39:00,83.7,58.8,29.21,SE,130,6.3,6.3,43,0.00,,,0.00,VWS V13.01,2013-08-24 14:39:00,
2013-08-24 09:41:00,85.1,60.1,29.23,SSE,164,4.0,4.0,43,0.00,,,0.00,VWS V13.01,2013-08-24 14:41:00,
2013-08-24 09:42:00,86.0,60.9,29.23,South,187,6.3,6.3,43,0.00,,,0.00,VWS V13.01,2013-08-24 14:42:00,
2013-08-24 09:43:00,87.1,61.9,29.23,SSE,166,3.6,3.6,43,0.00,,,0.00,VWS V13.01,2013-08-24 14:43:00,
2013-08-24 09:44:00,87.1,61.9,29.23,SSE,165,5.4,5.4,43,0.00,,,0.00,VWS V13.01,2013-08-24 14:44:00,
2013-08-24 09:46:00,85.3,60.3,29.23,South,178,5.8,5.8,43,0.00,,,0.00,VWS V13.01,2013-08-24 14:46:00,
2013-08-24 09:47:00,85.5,60.4,29.23,SSW,209,8.3,8.3,43,0.00,,,0.00,VWS V13.01,2013-08-24 14:47:00,
2013-08-24 09:48:00,85.3,60.3,29.23,SSW,197,8.1,8.1,43,0.00,,,0.00,VWS V13.01,2013-08-24 14:48:00,
2013-08-24 09:49:00,85.3,60.3,29.23,SSW,194,10.5,10.5,43,0.00,,,0.00,VWS V13.01,2013-08-24 14:49:00,
2013-08-24 09:51:00,85.3,60.3,29.23,South,186,7.6,7.6,43,0.00,,,0.00,VWS V13.01,2013-08-24 14:51:00,
2013-08-24 09:52:00,85.8,60.8,29.23,South,171,8.1,8.1,43,0.00,,,0.00,VWS V13.01,2013-08-24 14:52:00,
2013-08-24 09:53:00,85.5,60.4,29.23,South,186,10.1,10.1,43,0.00,,,0.00,VWS V13.01,2013-08-24 14:53:00,
2013-08-24 09:54:00,84.9,60.0,29.23,SSW,193,11.0,11.0,43,0.00,,,0.00,VWS V13.01,2013-08-24 14:54:00,
2013-08-24 09:56:00,85.6,60.6,29.21,South,181,8.1,8.1,43,0.00,,,0.00,VWS V13.01,2013-08-24 14:56:00,
2013-08-24 09:57:00,85.6,60.6,29.21,South,176,8.1,8.1,43,0.00,,,0.00,VWS V13.01,2013-08-24 14:57:00,
2013-08-24 09:58:00,86.2,61.1,29.21,South,179,8.3,8.3,43,0.00,,,0.00,VWS V13.01,2013-08-24 14:58:00,
2013-08-24 09:59:00,86.0,60.9,29.21,South,173,8.3,8.3,43,0.00,,,0.00,VWS V13.01,2013-08-24 14:59:00,
2013-08-24 10:00:00,86.4,61.2,29.21,SSW,202,5.8,5.8,43,0.00,,,0.00,VWS V13.01,2013-08-24 15:00:00,
2013-08-24 10:01:00,86.7,61.6,29.21,South,181,8.7,8.7,43,0.00,,,0.00,VWS V13.01,2013-08-24 15:01:00,
2013-08-24 10:02:00,86.4,61.2,29.21,SSW,194,8.3,8.3,43,0.00,,,0.00,VWS V13.01,2013-08-24 15:02:00,
2013-08-24 10:03:00,86.2,61.1,29.21,ESE,116,5.8,5.8,43,0.00,,,0.00,VWS V13.01,2013-08-24 15:03:00,
2013-08-24 10:04:00,86.9,61.7,29.21,South,184,7.6,7.6,43,0.00,,,0.00,VWS V13.01,2013-08-24 15:04:00,
2013-08-24 10:05:00,86.9,61.7,29.21,South,190,6.7,6.7,43,0.00,,,0.00,VWS V13.01,2013-08-24 15:05:00,
2013-08-24 10:06:00,87.1,61.9,29.21,SSE,163,7.6,7.6,43,0.00,,,0.00,VWS V13.01,2013-08-24 15:06:00,
2013-08-24 10:07:00,87.4,62.2,29.21,South,180,8.3,8.3,43,0.00,,,0.00,VWS V13.01,2013-08-24 15:07:00,
2013-08-24 10:09:00,87.1,61.9,29.21,SSW,195,10.1,10.1,43,0.00,,,0.00,VWS V13.01,2013-08-24 15:09:00,
2013-08-24 10:10:00,86.9,61.7,29.21,SSW,202,10.1,10.1,43,0.00,,,0.00,VWS V13.01,2013-08-24 15:10:00,
2013-08-24 10:11:00,86.5,61.4,29.21,South,190,10.1,10.1,43,0.00,,,0.00,VWS V13.01,2013-08-24 15:11:00,
2013-08-24 10:13:00,86.0,60.9,29.21,South,176,7.6,7.6,43,0.00,,,0.00,VWS V13.01,2013-08-24 15:13:00,
2013-08-24 10:14:00,85.5,60.4,29.21,South,189,9.6,9.6,43,0.00,,,0.00,VWS V13.01,2013-08-24 15:14:00,
2013-08-24 10:15:00,85.5,60.4,29.21,South,173,8.1,8.1,43,0.00,,,0.00,VWS V13.01,2013-08-24 15:15:00,
2013-08-24 10:16:00,85.3,60.3,29.21,South,191,8.1,8.1,43,0.00,,,0.00,VWS V13.01,2013-08-24 15:16:00,
2013-08-24 10:18:00,84.4,59.5,29.21,South,177,10.5,10.5,43,0.00,,,0.00,VWS V13.01,2013-08-24 15:18:00,
2013-08-24 10:19:00,84.2,59.3,29.21,South,178,11.9,11.9,43,0.00,,,0.00,VWS V13.01,2013-08-24 15:19:00,
2013-08-24 10:20:00,84.4,59.5,29.21,South,179,10.5,10.5,43,0.00,,,0.00,VWS V13.01,2013-08-24 15:20:00,
2013-08-24 10:21:00,84.7,59.8,29.21,South,176,8.1,8.1,43,0.00,,,0.00,VWS V13.01,2013-08-24 15:21:00,
2013-08-24 10:23:00,85.8,60.8,29.21,South,176,11.9,11.9,43,0.00,,,0.00,VWS V13.01,2013-08-24 15:23:00,
2013-08-24 10:24:00,84.9,60.0,29.21,South,181,10.5,10.5,43,0.00,,,0.00,VWS V13.01,2013-08-24 15:24:00,
2013-08-24 10:25:00,84.9,60.0,29.21,South,184,10.1,10.1,43,0.00,,,0.00,VWS V13.01,2013-08-24 15:25:00,
2013-08-24 10:26:00,86.0,60.9,29.21,South,185,7.6,7.6,43,0.00,,,0.00,VWS V13.01,2013-08-24 15:26:00,
2013-08-24 10:28:00,86.7,61.6,29.21,South,179,8.1,8.1,43,0.00,,,0.00,VWS V13.01,2013-08-24 15:28:00,
2013-08-24 10:29:00,86.4,61.2,29.21,South,174,10.1,10.1,43,0.00,,,0.00,VWS V13.01,2013-08-24 15:29:00,
2013-08-24 10:30:00,85.3,60.3,29.21,South,172,10.5,10.5,43,0.00,,,0.00,VWS V13.01,2013-08-24 15:30:00,
2013-08-24 10:31:00,84.7,59.8,29.21,SSE,156,8.1,8.1,43,0.00,,,0.00,VWS V13.01,2013-08-24 15:31:00,
2013-08-24 10:33:00,84.9,60.0,29.21,South,185,8.7,8.7,43,0.00,,,0.00,VWS V13.01,2013-08-24 15:33:00,
2013-08-24 10:34:00,84.7,59.8,29.21,SSE,161,4.0,4.0,43,0.00,,,0.00,VWS V13.01,2013-08-24 15:34:00,
2013-08-24 10:35:00,85.8,60.8,29.21,South,181,8.7,8.7,43,0.00,,,0.00,VWS V13.01,2013-08-24 15:35:00,
2013-08-24 10:36:00,85.5,60.4,29.21,South,179,10.1,10.1,43,0.00,,,0.00,VWS V13.01,2013-08-24 15:36:00,
2013-08-24 10:38:00,84.6,59.6,29.21,SSW,195,11.0,11.0,43,0.00,,,0.00,VWS V13.01,2013-08-24 15:38:00,
2013-08-24 10:39:00,84.0,59.1,29.21,SSW,192,8.1,8.1,43,0.00,,,0.00,VWS V13.01,2013-08-24 15:39:00,
2013-08-24 10:40:00,83.3,58.5,29.23,South,175,9.6,9.6,43,0.00,,,0.00,VWS V13.01,2013-08-24 15:40:00,
2013-08-24 10:41:00,83.7,58.8,29.23,South,178,11.0,11.0,43,0.00,,,0.00,VWS V13.01,2013-08-24 15:41:00,
2013-08-24 10:43:00,84.6,59.6,29.23,South,173,8.3,8.3,43,0.00,,,0.00,VWS V13.01,2013-08-24 15:43:00,
2013-08-24 10:44:00,86.4,61.2,29.23,South,177,8.1,8.1,43,0.00,,,0.00,VWS V13.01,2013-08-24 15:44:00,
2013-08-24 10:45:00,87.3,62.1,29.23,South,177,8.3,8.3,43,0.00,,,0.00,VWS V13.01,2013-08-24 15:45:00,
2013-08-24 10:47:00,87.8,58.3,29.23,South,181,6.3,6.3,37,0.00,,,0.00,VWS V13.01,2013-08-24 15:47:00,
2013-08-24 10:48:00,88.7,59.1,29.23,South,177,8.3,8.3,37,0.00,,,0.00,VWS V13.01,2013-08-24 15:48:00,
2013-08-24 10:49:00,88.7,59.1,29.23,South,172,8.3,8.3,37,0.00,,,0.00,VWS V13.01,2013-08-24 15:49:00,
2013-08-24 10:50:00,86.9,61.7,29.23,South,182,8.3,8.3,43,0.00,,,0.00,VWS V13.01,2013-08-24 15:50:00,
2013-08-24 10:52:00,86.2,61.1,29.23,South,179,8.7,8.7,43,0.00,,,0.00,VWS V13.01,2013-08-24 15:52:00,
2013-08-24 10:53:00,86.4,61.2,29.23,South,179,10.1,10.1,43,0.00,,,0.00,VWS V13.01,2013-08-24 15:53:00,
2013-08-24 10:54:00,86.7,61.6,29.23,South,186,5.4,5.4,43,0.00,,,0.00,VWS V13.01,2013-08-24 15:54:00,
2013-08-24 10:55:00,88.0,58.5,29.21,South,174,7.6,7.6,37,0.00,,,0.00,VWS V13.01,2013-08-24 15:55:00,
2013-08-24 10:57:00,88.3,58.8,29.21,SSE,150,8.7,8.7,37,0.00,,,0.00,VWS V13.01,2013-08-24 15:57:00,
2013-08-24 10:58:00,88.0,58.5,29.21,South,181,8.7,8.7,37,0.00,,,0.00,VWS V13.01,2013-08-24 15:58:00,
2013-08-24 10:59:00,87.6,62.4,29.21,South,180,10.1,10.1,43,0.00,,,0.00,VWS V13.01,2013-08-24 15:59:00,
2013-08-24 11:00:00,87.8,58.3,29.21,South,176,8.3,8.3,37,0.00,,,0.00,VWS V13.01,2013-08-24 16:00:00,
2013-08-24 11:02:00,88.9,59.3,29.21,South,187,6.3,6.3,37,0.00,,,0.00,VWS V13.01,2013-08-24 16:02:00,
2013-08-24 11:03:00,88.5,59.0,29.21,SW,217,8.1,8.1,37,0.00,,,0.00,VWS V13.01,2013-08-24 16:03:00,
2013-08-24 11:04:00,89.2,59.6,29.21,SSW,206,8.3,8.3,37,0.00,,,0.00,VWS V13.01,2013-08-24 16:04:00,
2013-08-24 11:05:00,89.4,59.7,29.21,SSW,200,8.1,8.1,37,0.00,,,0.00,VWS V13.01,2013-08-24 16:05:00,
2013-08-24 11:07:00,89.8,60.1,29.21,SSE,159,8.1,8.1,37,0.00,,,0.00,VWS V13.01,2013-08-24 16:07:00,
2013-08-24 11:09:00,88.5,59.0,29.21,South,173,10.5,10.5,37,0.00,,,0.00,VWS V13.01,2013-08-24 16:09:00,
2013-08-24 11:10:00,88.7,59.1,29.23,South,190,8.3,8.3,37,0.00,,,0.00,VWS V13.01,2013-08-24 16:10:00,
2013-08-24 11:12:00,89.6,59.9,29.23,South,179,8.1,8.1,37,0.00,,,0.00,VWS V13.01,2013-08-24 16:12:00,
2013-08-24 11:14:00,90.0,60.2,29.23,SSW,195,8.1,8.1,37,0.00,,,0.00,VWS V13.01,2013-08-24 16:14:00,
2013-08-24 11:15:00,90.0,60.2,29.23,South,188,8.1,8.1,37,0.00,,,0.00,VWS V13.01,2013-08-24 16:15:00,
2013-08-24 11:17:00,88.3,58.8,29.23,SSW,193,10.1,10.1,37,0.00,,,0.00,VWS V13.01,2013-08-24 16:17:00,
2013-08-24 11:19:00,88.3,58.8,29.23,SSW,198,8.1,8.1,37,0.00,,,0.00,VWS V13.01,2013-08-24 16:19:00,
2013-08-24 11:20:00,89.6,59.9,29.23,SSW,196,10.1,10.1,37,0.00,,,0.00,VWS V13.01,2013-08-24 16:20:00,
2013-08-24 11:22:00,89.2,59.6,29.23,SSW,195,9.2,9.2,37,0.00,,,0.00,VWS V13.01,2013-08-24 16:22:00,
2013-08-24 11:24:00,90.3,60.5,29.23,NNE,18,6.7,6.7,37,0.00,,,0.00,VWS V13.01,2013-08-24 16:24:00,
2013-08-24 11:25:00,89.2,59.6,29.21,South,183,10.1,10.1,37,0.00,,,0.00,VWS V13.01,2013-08-24 16:25:00,
2013-08-24 11:27:00,88.7,59.1,29.21,South,178,8.7,8.7,37,0.00,,,0.00,VWS V13.01,2013-08-24 16:27:00,
2013-08-24 11:29:00,89.2,59.6,29.21,South,183,9.2,9.2,37,0.00,,,0.00,VWS V13.01,2013-08-24 16:29:00,
2013-08-24 11:30:00,89.6,59.9,29.21,SSW,193,8.1,8.1,37,0.00,,,0.00,VWS V13.01,2013-08-24 16:30:00,
2013-08-24 11:31:00,89.6,59.9,29.21,South,177,8.3,8.3,37,0.00,,,0.00,VWS V13.01,2013-08-24 16:31:00,
2013-08-24 11:32:00,90.0,60.2,29.21,South,176,5.8,5.8,37,0.00,,,0.00,VWS V13.01,2013-08-24 16:32:00,
2013-08-24 11:34:00,89.6,59.9,29.21,SSW,196,11.0,11.0,37,0.00,,,0.00,VWS V13.01,2013-08-24 16:34:00,
2013-08-24 11:35:00,89.2,59.6,29.21,SSW,192,8.1,8.1,37,0.00,,,0.00,VWS V13.01,2013-08-24 16:35:00,
2013-08-24 11:36:00,89.2,59.6,29.21,South,177,8.7,8.7,37,0.00,,,0.00,VWS V13.01,2013-08-24 16:36:00,
2013-08-24 11:37:00,89.8,60.1,29.21,South,178,11.0,11.0,37,0.00,,,0.00,VWS V13.01,2013-08-24 16:37:00,
2013-08-24 11:39:00,89.4,59.7,29.21,South,170,8.7,8.7,37,0.00,,,0.00,VWS V13.01,2013-08-24 16:39:00,
2013-08-24 11:40:00,88.3,58.8,29.21,South,173,11.0,11.0,37,0.00,,,0.00,VWS V13.01,2013-08-24 16:40:00,
2013-08-24 11:41:00,88.3,58.8,29.21,South,177,10.1,10.1,37,0.00,,,0.00,VWS V13.01,2013-08-24 16:41:00,
2013-08-24 11:42:00,88.2,58.6,29.21,South,177,11.0,11.0,37,0.00,,,0.00,VWS V13.01,2013-08-24 16:42:00,
2013-08-24 11:44:00,88.5,59.0,29.21,SSW,195,10.1,10.1,37,0.00,,,0.00,VWS V13.01,2013-08-24 16:44:00,
2013-08-24 11:45:00,88.3,58.8,29.21,South,178,13.2,13.2,37,0.00,,,0.00,VWS V13.01,2013-08-24 16:45:00,
2013-08-24 11:46:00,88.3,58.8,29.21,SSW,198,8.7,8.7,37,0.00,,,0.00,VWS V13.01,2013-08-24 16:46:00,
2013-08-24 11:48:00,88.0,58.5,29.21,South,175,11.0,11.0,37,0.00,,,0.00,VWS V13.01,2013-08-24 16:48:00,
2013-08-24 11:49:00,88.7,59.1,29.21,South,169,11.9,11.9,37,0.00,,,0.00,VWS V13.01,2013-08-24 16:49:00,
2013-08-24 11:50:00,87.8,58.3,29.21,SSW,211,12.8,12.8,37,0.00,,,0.00,VWS V13.01,2013-08-24 16:50:00,
2013-08-24 11:51:00,87.8,58.3,29.21,South,171,8.7,8.7,37,0.00,,,0.00,VWS V13.01,2013-08-24 16:51:00,
2013-08-24 11:53:00,88.3,58.8,29.21,SSW,193,10.5,10.5,37,0.00,,,0.00,VWS V13.01,2013-08-24 16:53:00,
2013-08-24 11:54:00,87.6,62.4,29.23,SSW,208,12.8,12.8,43,0.00,,,0.00,VWS V13.01,2013-08-24 16:54:00,
2013-08-24 11:55:00,86.9,61.7,29.23,SSW,197,10.1,10.1,43,0.00,,,0.00,VWS V13.01,2013-08-24 16:55:00,
2013-08-24 11:56:00,86.9,61.7,29.23,South,176,8.7,8.7,43,0.00,,,0.00,VWS V13.01,2013-08-24 16:56:00,
2013-08-24 11:58:00,87.4,62.2,29.23,SSW,203,5.8,5.8,43,0.00,,,0.00,VWS V13.01,2013-08-24 16:58:00,
2013-08-24 11:59:00,88.2,58.6,29.23,South,178,10.1,10.1,37,0.00,,,0.00,VWS V13.01,2013-08-24 16:59:00,
2013-08-24 12:00:00,88.5,59.0,29.23,South,175,7.6,7.6,37,0.00,,,0.00,VWS V13.01,2013-08-24 17:00:00,
2013-08-24 12:01:00,88.5,59.0,29.23,SSE,148,5.8,5.8,37,0.00,,,0.00,VWS V13.01,2013-08-24 17:01:00,
2013-08-24 12:03:00,87.6,62.4,29.23,SSW,198,8.7,8.7,43,0.00,,,0.00,VWS V13.01,2013-08-24 17:03:00,
2013-08-24 12:04:00,88.2,58.6,29.23,South,180,11.9,11.9,37,0.00,,,0.00,VWS V13.01,2013-08-24 17:04:00,
2013-08-24 12:06:00,88.5,59.0,29.23,SW,217,8.7,8.7,37,0.00,,,0.00,VWS V13.01,2013-08-24 17:06:00,
2013-08-24 12:08:00,88.2,58.6,29.23,South,178,12.3,12.3,37,0.00,,,0.00,VWS V13.01,2013-08-24 17:08:00,
2013-08-24 12:10:00,87.6,62.4,29.23,South,172,8.1,8.1,43,0.00,,,0.00,VWS V13.01,2013-08-24 17:10:00,
2013-08-24 12:11:00,88.3,58.8,29.23,SSW,196,11.0,11.0,37,0.00,,,0.00,VWS V13.01,2013-08-24 17:11:00,
2013-08-24 12:13:00,87.6,62.4,29.23,SSE,149,8.1,8.1,43,0.00,,,0.00,VWS V13.01,2013-08-24 17:13:00,
2013-08-24 12:15:00,87.8,58.3,29.23,SW,214,4.0,4.0,37,0.00,,,0.00,VWS V13.01,2013-08-24 17:15:00,
2013-08-24 12:16:00,87.4,62.2,29.23,South,182,8.7,8.7,43,0.00,,,0.00,VWS V13.01,2013-08-24 17:16:00,
2013-08-24 12:18:00,87.8,58.3,29.23,South,183,7.6,7.6,37,0.00,,,0.00,VWS V13.01,2013-08-24 17:18:00,
2013-08-24 12:20:00,88.2,58.6,29.23,South,181,8.1,8.1,37,0.00,,,0.00,VWS V13.01,2013-08-24 17:20:00,
2013-08-24 12:21:00,88.7,59.1,29.23,SSE,165,5.4,5.4,37,0.00,,,0.00,VWS V13.01,2013-08-24 17:21:00,
2013-08-24 12:23:00,88.7,59.1,29.23,SSW,206,6.3,6.3,37,0.00,,,0.00,VWS V13.01,2013-08-24 17:23:00,
2013-08-24 12:25:00,88.7,59.1,29.23,SSW,192,8.7,8.7,37,0.00,,,0.00,VWS V13.01,2013-08-24 17:25:00,
2013-08-24 12:26:00,88.7,59.1,29.23,South,185,7.6,7.6,37,0.00,,,0.00,VWS V13.01,2013-08-24 17:26:00,
2013-08-24 12:28:00,89.4,59.7,29.23,SSW,194,6.3,6.3,37,0.00,,,0.00,VWS V13.01,2013-08-24 17:28:00,
2013-08-24 12:30:00,89.1,59.4,29.23,South,180,10.1,10.1,37,0.00,,,0.00,VWS V13.01,2013-08-24 17:30:00,
2013-08-24 12:31:00,88.9,59.3,29.23,South,178,8.1,8.1,37,0.00,,,0.00,VWS V13.01,2013-08-24 17:31:00,
2013-08-24 12:33:00,88.0,58.5,29.23,South,178,8.1,8.1,37,0.00,,,0.00,VWS V13.01,2013-08-24 17:33:00,
2013-08-24 12:35:00,87.6,62.4,29.23,South,176,8.3,8.3,43,0.00,,,0.00,VWS V13.01,2013-08-24 17:35:00,
2013-08-24 12:36:00,87.6,62.4,29.23,South,189,10.5,10.5,43,0.00,,,0.00,VWS V13.01,2013-08-24 17:36:00,
2013-08-24 12:38:00,88.0,58.5,29.23,South,180,5.8,5.8,37,0.00,,,0.00,VWS V13.01,2013-08-24 17:38:00,
2013-08-24 12:40:00,87.6,62.4,29.23,South,179,8.1,8.1,43,0.00,,,0.00,VWS V13.01,2013-08-24 17:40:00,
2013-08-24 12:41:00,87.1,61.9,29.23,South,185,8.1,8.1,43,0.00,,,0.00,VWS V13.01,2013-08-24 17:41:00,
2013-08-24 12:43:00,88.2,58.6,29.23,SSE,168,8.7,8.7,37,0.00,,,0.00,VWS V13.01,2013-08-24 17:43:00,
2013-08-24 12:45:00,88.0,58.5,29.23,SSW,195,8.3,8.3,37,0.00,,,0.00,VWS V13.01,2013-08-24 17:45:00,
2013-08-24 12:46:00,88.2,58.6,29.23,South,182,8.1,8.1,37,0.00,,,0.00,VWS V13.01,2013-08-24 17:46:00,
2013-08-24 12:48:00,88.9,59.3,29.23,SSE,151,6.3,6.3,37,0.00,,,0.00,VWS V13.01,2013-08-24 17:48:00,
2013-08-24 12:50:00,89.2,59.6,29.23,South,180,10.1,10.1,37,0.00,,,0.00,VWS V13.01,2013-08-24 17:50:00,
2013-08-24 12:51:00,88.7,59.1,29.23,South,178,8.7,8.7,37,0.00,,,0.00,VWS V13.01,2013-08-24 17:51:00,
2013-08-24 12:53:00,89.6,59.9,29.23,South,185,6.3,6.3,37,0.00,,,0.00,VWS V13.01,2013-08-24 17:53:00,
2013-08-24 12:56:00,89.6,59.9,29.23,South,179,5.8,5.8,37,0.00,,,0.00,VWS V13.01,2013-08-24 17:56:00,
2013-08-24 12:58:00,90.1,60.4,29.23,SSW,192,7.6,7.6,37,0.00,,,0.00,VWS V13.01,2013-08-24 17:58:00,
2013-08-24 13:01:00,89.4,59.7,29.23,South,178,6.3,6.3,37,0.00,,,0.00,VWS V13.01,2013-08-24 18:01:00,
2013-08-24 13:03:00,89.4,59.7,29.23,South,181,5.8,5.8,37,0.00,,,0.00,VWS V13.01,2013-08-24 18:03:00,
2013-08-24 13:06:00,90.7,60.9,29.23,SE,126,5.8,5.8,37,0.00,,,0.00,VWS V13.01,2013-08-24 18:06:00,
2013-08-24 13:07:00,90.7,60.9,29.23,South,181,6.7,6.7,37,0.00,,,0.00,VWS V13.01,2013-08-24 18:07:00,
2013-08-24 13:09:00,90.5,60.7,29.23,South,183,9.6,9.6,37,0.00,,,0.00,VWS V13.01,2013-08-24 18:09:00,
2013-08-24 13:11:00,90.7,60.9,29.21,SSE,168,7.6,7.6,37,0.00,,,0.00,VWS V13.01,2013-08-24 18:11:00,
2013-08-24 13:12:00,90.3,60.5,29.21,South,176,11.0,11.0,37,0.00,,,0.00,VWS V13.01,2013-08-24 18:12:00,
2013-08-24 13:14:00,89.1,59.4,29.21,South,178,7.6,7.6,37,0.00,,,0.00,VWS V13.01,2013-08-24 18:14:00,
2013-08-24 13:16:00,89.4,59.7,29.21,SSE,166,7.6,7.6,37,0.00,,,0.00,VWS V13.01,2013-08-24 18:16:00,
2013-08-24 13:17:00,90.1,60.4,29.21,South,181,5.4,5.4,37,0.00,,,0.00,VWS V13.01,2013-08-24 18:17:00,
2013-08-24 13:19:00,91.6,56.7,29.21,SSE,164,8.1,8.1,31,0.00,,,0.00,VWS V13.01,2013-08-24 18:19:00,
2013-08-24 13:21:00,93.6,58.4,29.21,SE,128,7.6,7.6,31,0.00,,,0.00,VWS V13.01,2013-08-24 18:21:00,
2013-08-24 13:22:00,94.5,59.2,29.21,SSW,194,4.5,4.5,31,0.00,,,0.00,VWS V13.01,2013-08-24 18:22:00,
2013-08-24 13:24:00,91.9,57.0,29.21,SW,215,8.1,8.1,31,0.00,,,0.00,VWS V13.01,2013-08-24 18:24:00,
2013-08-24 13:26:00,91.9,57.0,29.21,South,182,11.0,11.0,31,0.00,,,0.00,VWS V13.01,2013-08-24 18:26:00,
2013-08-24 13:27:00,90.3,60.5,29.21,South,180,5.4,5.4,37,0.00,,,0.00,VWS V13.01,2013-08-24 18:27:00,
2013-08-24 13:29:00,88.9,59.3,29.21,South,178,8.1,8.1,37,0.00,,,0.00,VWS V13.01,2013-08-24 18:29:00,
2013-08-24 13:31:00,89.6,59.9,29.21,South,173,8.7,8.7,37,0.00,,,0.00,VWS V13.01,2013-08-24 18:31:00,
2013-08-24 13:32:00,90.7,60.9,29.21,South,182,6.3,6.3,37,0.00,,,0.00,VWS V13.01,2013-08-24 18:32:00,
2013-08-24 13:34:00,91.6,56.7,29.21,South,175,8.3,8.3,31,0.00,,,0.00,VWS V13.01,2013-08-24 18:34:00,
2013-08-24 13:36:00,94.8,59.5,29.21,South,184,5.4,5.4,31,0.00,,,0.00,VWS V13.01,2013-08-24 18:36:00,
2013-08-24 13:37:00,94.3,59.0,29.21,South,189,8.1,8.1,31,0.00,,,0.00,VWS V13.01,2013-08-24 18:37:00,
2013-08-24 13:39:00,93.2,58.1,29.21,South,183,8.7,8.7,31,0.00,,,0.00,VWS V13.01,2013-08-24 18:39:00,
2013-08-24 13:41:00,91.0,61.2,29.21,South,182,8.1,8.1,37,0.00,,,0.00,VWS V13.01,2013-08-24 18:41:00,
2013-08-24 13:42:00,91.8,56.9,29.21,South,183,3.6,3.6,31,0.00,,,0.00,VWS V13.01,2013-08-24 18:42:00,
2013-08-24 13:44:00,93.6,58.4,29.21,South,182,6.3,6.3,31,0.00,,,0.00,VWS V13.01,2013-08-24 18:44:00,
2013-08-24 13:46:00,93.7,58.6,29.21,WSW,238,5.4,5.4,31,0.00,,,0.00,VWS V13.01,2013-08-24 18:46:00,
2013-08-24 13:47:00,94.3,59.0,29.21,South,178,8.3,8.3,31,0.00,,,0.00,VWS V13.01,2013-08-24 18:47:00,
2013-08-24 13:49:00,93.2,58.1,29.21,WSW,252,5.4,5.4,31,0.00,,,0.00,VWS V13.01,2013-08-24 18:49:00,
2013-08-24 13:51:00,91.2,61.3,29.21,SSE,164,8.1,8.1,37,0.00,,,0.00,VWS V13.01,2013-08-24 18:51:00,
2013-08-24 13:52:00,90.0,60.2,29.21,South,181,8.1,8.1,37,0.00,,,0.00,VWS V13.01,2013-08-24 18:52:00,
2013-08-24 13:54:00,91.6,56.7,29.21,SSE,149,3.6,3.6,31,0.00,,,0.00,VWS V13.01,2013-08-24 18:54:00,
2013-08-24 13:56:00,92.7,57.6,29.21,South,178,7.6,7.6,31,0.00,,,0.00,VWS V13.01,2013-08-24 18:56:00,
2013-08-24 13:57:00,92.7,57.6,29.21,South,175,5.4,5.4,31,0.00,,,0.00,VWS V13.01,2013-08-24 18:57:00,
2013-08-24 13:59:00,94.1,58.9,29.21,South,186,4.9,4.9,31,0.00,,,0.00,VWS V13.01,2013-08-24 18:59:00,
2013-08-24 14:02:00,93.9,58.7,29.21,SE,144,8.3,8.3,31,0.00,,,0.00,VWS V13.01,2013-08-24 19:02:00,
2013-08-24 14:04:00,92.3,57.3,29.21,South,175,6.3,6.3,31,0.00,,,0.00,VWS V13.01,2013-08-24 19:04:00,
2013-08-24 14:07:00,94.1,58.9,29.21,South,190,5.4,5.4,31,0.00,,,0.00,VWS V13.01,2013-08-24 19:07:00,
2013-08-24 14:09:00,91.0,61.2,29.21,South,182,8.3,8.3,37,0.00,,,0.00,VWS V13.01,2013-08-24 19:09:00,
2013-08-24 14:12:00,88.7,59.1,29.21,SSW,192,8.1,8.1,37,0.00,,,0.00,VWS V13.01,2013-08-24 19:12:00,
2013-08-24 14:15:00,90.0,60.2,29.21,SSW,202,7.6,7.6,37,0.00,,,0.00,VWS V13.01,2013-08-24 19:15:00,
2013-08-24 14:17:00,90.0,60.2,29.21,SSE,148,8.1,8.1,37,0.00,,,0.00,VWS V13.01,2013-08-24 19:17:00,
2013-08-24 14:18:00,90.3,60.5,29.21,SSE,154,5.8,5.8,37,0.00,,,0.00,VWS V13.01,2013-08-24 19:18:00,
2013-08-24 14:20:00,90.1,60.4,29.21,South,187,8.7,8.7,37,0.00,,,0.00,VWS V13.01,2013-08-24 19:20:00,
2013-08-24 14:22:00,90.7,60.9,29.21,South,190,3.1,3.1,37,0.00,,,0.00,VWS V13.01,2013-08-24 19:22:00,
2013-08-24 14:23:00,91.2,61.3,29.21,South,178,9.2,9.2,37,0.00,,,0.00,VWS V13.01,2013-08-24 19:23:00,
2013-08-24 14:25:00,89.8,60.1,29.21,South,179,7.6,7.6,37,0.00,,,0.00,VWS V13.01,2013-08-24 19:25:00,
2013-08-24 14:27:00,89.6,59.9,29.21,South,182,8.1,8.1,37,0.00,,,0.00,VWS V13.01,2013-08-24 19:27:00,
2013-08-24 14:28:00,89.6,59.9,29.21,South,170,8.1,8.1,37,0.00,,,0.00,VWS V13.01,2013-08-24 19:28:00,
2013-08-24 14:30:00,88.9,59.3,29.21,South,182,8.1,8.1,37,0.00,,,0.00,VWS V13.01,2013-08-24 19:30:00,
2013-08-24 14:32:00,89.4,59.7,29.21,South,173,6.3,6.3,37,0.00,,,0.00,VWS V13.01,2013-08-24 19:32:00,
2013-08-24 14:33:00,89.2,59.6,29.21,South,186,5.4,5.4,37,0.00,,,0.00,VWS V13.01,2013-08-24 19:33:00,
2013-08-24 14:35:00,89.6,59.9,29.21,South,190,8.7,8.7,37,0.00,,,0.00,VWS V13.01,2013-08-24 19:35:00,
2013-08-24 14:37:00,90.3,60.5,29.21,South,186,8.3,8.3,37,0.00,,,0.00,VWS V13.01,2013-08-24 19:37:00,
2013-08-24 14:38:00,90.5,60.7,29.21,South,181,8.7,8.7,37,0.00,,,0.00,VWS V13.01,2013-08-24 19:38:00,
2013-08-24 14:40:00,90.5,60.7,29.21,SSW,202,9.2,9.2,37,0.00,,,0.00,VWS V13.01,2013-08-24 19:40:00,
2013-08-24 14:42:00,89.6,59.9,29.21,South,182,5.8,5.8,37,0.00,,,0.00,VWS V13.01,2013-08-24 19:42:00,
2013-08-24 14:43:00,89.6,59.9,29.21,South,176,4.9,4.9,37,0.00,,,0.00,VWS V13.01,2013-08-24 19:43:00,
2013-08-24 14:45:00,89.8,60.1,29.21,South,179,6.3,6.3,37,0.00,,,0.00,VWS V13.01,2013-08-24 19:45:00,
2013-08-24 14:47:00,89.8,60.1,29.21,South,187,4.0,4.0,37,0.00,,,0.00,VWS V13.01,2013-08-24 19:47:00,
2013-08-24 14:48:00,89.8,60.1,29.21,WSW,238,3.6,3.6,37,0.00,,,0.00,VWS V13.01,2013-08-24 19:48:00,
2013-08-24 14:50:00,90.1,60.4,29.21,SSW,194,7.6,7.6,37,0.00,,,0.00,VWS V13.01,2013-08-24 19:50:00,
2013-08-24 14:52:00,90.9,61.0,29.21,South,174,3.6,3.6,37,0.00,,,0.00,VWS V13.01,2013-08-24 19:52:00,
2013-08-24 14:53:00,90.7,60.9,29.21,SSW,194,7.2,7.2,37,0.00,,,0.00,VWS V13.01,2013-08-24 19:53:00,
2013-08-24 14:55:00,90.1,60.4,29.21,South,176,10.1,10.1,37,0.00,,,0.00,VWS V13.01,2013-08-24 19:55:00,
2013-08-24 14:57:00,88.7,59.1,29.21,South,173,10.1,10.1,37,0.00,,,0.00,VWS V13.01,2013-08-24 19:57:00,
2013-08-24 14:58:00,88.9,59.3,29.21,South,171,12.3,12.3,37,0.00,,,0.00,VWS V13.01,2013-08-24 19:58:00,
2013-08-24 15:00:00,89.6,59.9,29.21,SSW,203,10.1,10.1,37,0.00,,,0.00,VWS V13.01,2013-08-24 20:00:00,
2013-08-24 15:02:00,89.1,59.4,29.21,South,180,7.6,7.6,37,0.00,,,0.00,VWS V13.01,2013-08-24 20:02:00,
2013-08-24 15:03:00,89.2,59.6,29.21,SSE,151,6.7,6.7,37,0.00,,,0.00,VWS V13.01,2013-08-24 20:03:00,
2013-08-24 15:04:00,89.4,59.7,29.21,South,177,8.1,8.1,37,0.00,,,0.00,VWS V13.01,2013-08-24 20:04:00,
2013-08-24 15:05:00,89.4,59.7,29.21,South,190,8.3,8.3,37,0.00,,,0.00,VWS V13.01,2013-08-24 20:05:00,
2013-08-24 15:08:00,89.4,59.7,29.21,South,180,5.8,5.8,37,0.00,,,0.00,VWS V13.01,2013-08-24 20:08:00,
2013-08-24 15:09:00,89.4,59.7,29.21,South,182,6.3,6.3,37,0.00,,,0.00,VWS V13.01,2013-08-24 20:09:00,
2013-08-24 15:10:00,89.2,59.6,29.21,South,184,8.3,8.3,37,0.00,,,0.00,VWS V13.01,2013-08-24 20:10:00,
2013-08-24 15:13:00,89.8,60.1,29.21,SSW,195,8.1,8.1,37,0.00,,,0.00,VWS V13.01,2013-08-24 20:13:00,
2013-08-24 15:14:00,89.4,59.7,29.21,South,186,7.6,7.6,37,0.00,,,0.00,VWS V13.01,2013-08-24 20:14:00,
2013-08-24 15:15:00,89.6,59.9,29.21,South,183,7.6,7.6,37,0.00,,,0.00,VWS V13.01,2013-08-24 20:15:00,
2013-08-24 15:18:00,90.3,60.5,29.21,South,169,5.8,5.8,37,0.00,,,0.00,VWS V13.01,2013-08-24 20:18:00,
2013-08-24 15:19:00,90.7,60.9,29.21,SSW,194,9.6,9.6,37,0.00,,,0.00,VWS V13.01,2013-08-24 20:19:00,
2013-08-24 15:20:00,89.2,59.6,29.21,South,178,7.6,7.6,37,0.00,,,0.00,VWS V13.01,2013-08-24 20:20:00,
2013-08-24 15:23:00,89.6,59.9,29.21,South,181,5.8,5.8,37,0.00,,,0.00,VWS V13.01,2013-08-24 20:23:00,
2013-08-24 15:24:00,89.8,60.1,29.21,NW,324,7.6,7.6,37,0.00,,,0.00,VWS V13.01,2013-08-24 20:24:00,
2013-08-24 15:25:00,89.6,59.9,29.21,SSW,199,12.3,12.3,37,0.00,,,0.00,VWS V13.01,2013-08-24 20:25:00,
2013-08-24 15:28:00,90.1,60.4,29.21,South,180,10.5,10.5,37,0.00,,,0.00,VWS V13.01,2013-08-24 20:28:00,
2013-08-24 15:29:00,90.0,60.2,29.21,ESE,108,10.1,10.1,37,0.00,,,0.00,VWS V13.01,2013-08-24 20:29:00,
2013-08-24 15:30:00,89.4,59.7,29.21,South,179,8.7,8.7,37,0.00,,,0.00,VWS V13.01,2013-08-24 20:30:00,
2013-08-24 15:33:00,89.4,59.7,29.21,South,178,8.1,8.1,37,0.00,,,0.00,VWS V13.01,2013-08-24 20:33:00,
2013-08-24 15:34:00,89.6,59.9,29.21,SSW,200,8.1,8.1,37,0.00,,,0.00,VWS V13.01,2013-08-24 20:34:00,
2013-08-24 15:35:00,90.0,60.2,29.21,South,184,10.1,10.1,37,0.00,,,0.00,VWS V13.01,2013-08-24 20:35:00,
2013-08-24 15:38:00,90.1,60.4,29.21,South,170,8.3,8.3,37,0.00,,,0.00,VWS V13.01,2013-08-24 20:38:00,
2013-08-24 15:39:00,90.0,60.2,29.21,South,189,7.6,7.6,37,0.00,,,0.00,VWS V13.01,2013-08-24 20:39:00,
2013-08-24 15:40:00,90.0,60.2,29.21,South,173,6.7,6.7,37,0.00,,,0.00,VWS V13.01,2013-08-24 20:40:00,
2013-08-24 15:43:00,90.3,60.5,29.21,SSW,194,7.6,7.6,37,0.00,,,0.00,VWS V13.01,2013-08-24 20:43:00,
2013-08-24 15:44:00,90.0,60.2,29.21,South,184,11.0,11.0,37,0.00,,,0.00,VWS V13.01,2013-08-24 20:44:00,
2013-08-24 15:45:00,89.8,60.1,29.21,South,182,11.9,11.9,37,0.00,,,0.00,VWS V13.01,2013-08-24 20:45:00,
2013-08-24 15:48:00,90.1,60.4,29.21,SSW,203,8.3,8.3,37,0.00,,,0.00,VWS V13.01,2013-08-24 20:48:00,
2013-08-24 15:49:00,90.1,60.4,29.21,South,182,8.3,8.3,37,0.00,,,0.00,VWS V13.01,2013-08-24 20:49:00,
2013-08-24 15:50:00,89.8,60.1,29.21,South,169,8.1,8.1,37,0.00,,,0.00,VWS V13.01,2013-08-24 20:50:00,
2013-08-24 15:53:00,89.8,60.1,29.21,South,181,7.6,7.6,37,0.00,,,0.00,VWS V13.01,2013-08-24 20:53:00,
2013-08-24 15:54:00,90.0,60.2,29.21,SSE,168,5.8,5.8,37,0.00,,,0.00,VWS V13.01,2013-08-24 20:54:00,
2013-08-24 15:55:00,90.1,60.4,29.18,South,185,11.0,11.0,37,0.00,,,0.00,VWS V13.01,2013-08-24 20:55:00,
2013-08-24 15:58:00,89.8,60.1,29.18,South,183,8.1,8.1,37,0.00,,,0.00,VWS V13.01,2013-08-24 20:58:00,
2013-08-24 15:59:00,89.8,60.1,29.18,South,180,8.1,8.1,37,0.00,,,0.00,VWS V13.01,2013-08-24 20:59:00,
2013-08-24 16:00:00,90.0,60.2,29.18,SE,145,6.7,6.7,37,0.00,,,0.00,VWS V13.01,2013-08-24 21:00:00,
2013-08-24 16:03:00,90.0,60.2,29.18,South,184,8.7,8.7,37,0.00,,,0.00,VWS V13.01,2013-08-24 21:03:00,
2013-08-24 16:04:00,90.1,60.4,29.18,SSW,199,7.6,7.6,37,0.00,,,0.00,VWS V13.01,2013-08-24 21:04:00,
2013-08-24 16:05:00,90.3,60.5,29.18,South,189,8.1,8.1,37,0.00,,,0.00,VWS V13.01,2013-08-24 21:05:00,
2013-08-24 16:08:00,89.8,60.1,29.18,South,185,12.8,12.8,37,0.00,,,0.00,VWS V13.01,2013-08-24 21:08:00,
2013-08-24 16:09:00,89.8,60.1,29.18,South,176,12.3,12.3,37,0.00,,,0.00,VWS V13.01,2013-08-24 21:09:00,
2013-08-24 16:10:00,90.1,60.4,29.18,SSE,164,8.7,8.7,37,0.00,,,0.00,VWS V13.01,2013-08-24 21:10:00,
2013-08-24 16:13:00,90.0,60.2,29.18,South,180,10.5,10.5,37,0.00,,,0.00,VWS V13.01,2013-08-24 21:13:00,
2013-08-24 16:14:00,89.6,59.9,29.18,South,173,10.5,10.5,37,0.00,,,0.00,VWS V13.01,2013-08-24 21:14:00,
2013-08-24 16:15:00,89.4,59.7,29.18,South,183,8.1,8.1,37,0.00,,,0.00,VWS V13.01,2013-08-24 21:15:00,
2013-08-24 16:18:00,89.8,60.1,29.18,South,190,5.4,5.4,37,0.00,,,0.00,VWS V13.01,2013-08-24 21:18:00,
2013-08-24 16:19:00,89.8,60.1,29.18,South,180,7.6,7.6,37,0.00,,,0.00,VWS V13.01,2013-08-24 21:19:00,
2013-08-24 16:20:00,89.8,60.1,29.18,South,170,7.6,7.6,37,0.00,,,0.00,VWS V13.01,2013-08-24 21:20:00,
2013-08-24 16:23:00,89.8,60.1,29.18,South,173,11.0,11.0,37,0.00,,,0.00,VWS V13.01,2013-08-24 21:23:00,
2013-08-24 16:24:00,89.8,60.1,29.18,SSE,167,8.1,8.1,37,0.00,,,0.00,VWS V13.01,2013-08-24 21:24:00,
2013-08-24 16:25:00,89.8,60.1,29.18,South,185,7.2,7.2,37,0.00,,,0.00,VWS V13.01,2013-08-24 21:25:00,
2013-08-24 16:29:00,90.1,60.4,29.18,South,177,10.1,10.1,37,0.00,,,0.00,VWS V13.01,2013-08-24 21:29:00,
2013-08-24 16:30:00,89.8,60.1,29.18,South,178,8.3,8.3,37,0.00,,,0.00,VWS V13.01,2013-08-24 21:30:00,
2013-08-24 16:34:00,89.6,59.9,29.18,SSW,195,9.2,9.2,37,0.00,,,0.00,VWS V13.01,2013-08-24 21:34:00,
2013-08-24 16:35:00,89.8,60.1,29.18,SSW,193,8.7,8.7,37,0.00,,,0.00,VWS V13.01,2013-08-24 21:35:00,
2013-08-24 16:36:00,89.6,59.9,29.18,South,180,8.1,8.1,37,0.00,,,0.00,VWS V13.01,2013-08-24 21:36:00,
2013-08-24 16:39:00,89.6,59.9,29.18,South,182,6.3,6.3,37,0.00,,,0.00,VWS V13.01,2013-08-24 21:39:00,
2013-08-24 16:40:00,90.0,60.2,29.18,SSW,193,8.3,8.3,37,0.00,,,0.00,VWS V13.01,2013-08-24 21:40:00,
2013-08-24 16:41:00,90.1,60.4,29.18,SSW,200,8.3,8.3,37,0.00,,,0.00,VWS V13.01,2013-08-24 21:41:00,
2013-08-24 16:44:00,89.6,59.9,29.18,South,181,8.1,8.1,37,0.00,,,0.00,VWS V13.01,2013-08-24 21:44:00,
2013-08-24 16:45:00,89.4,59.7,29.18,South,181,10.1,10.1,37,0.00,,,0.00,VWS V13.01,2013-08-24 21:45:00,
2013-08-24 16:46:00,89.2,59.6,29.18,South,174,11.0,11.0,37,0.00,,,0.00,VWS V13.01,2013-08-24 21:46:00,
2013-08-24 16:49:00,89.6,59.9,29.18,South,177,8.1,8.1,37,0.00,,,0.00,VWS V13.01,2013-08-24 21:49:00,
2013-08-24 16:50:00,89.6,59.9,29.18,SSE,167,8.1,8.1,37,0.00,,,0.00,VWS V13.01,2013-08-24 21:50:00,
2013-08-24 16:51:00,89.4,59.7,29.18,South,179,7.6,7.6,37,0.00,,,0.00,VWS V13.01,2013-08-24 21:51:00,
2013-08-24 16:54:00,90.1,60.4,29.18,South,185,5.8,5.8,37,0.00,,,0.00,VWS V13.01,2013-08-24 21:54:00,
2013-08-24 16:55:00,90.1,60.4,29.18,South,181,8.7,8.7,37,0.00,,,0.00,VWS V13.01,2013-08-24 21:55:00,
2013-08-24 16:56:00,90.1,60.4,29.18,South,185,6.3,6.3,37,0.00,,,0.00,VWS V13.01,2013-08-24 21:56:00,
2013-08-24 16:59:00,89.2,59.6,29.18,South,177,8.3,8.3,37,0.00,,,0.00,VWS V13.01,2013-08-24 21:59:00,
2013-08-24 17:00:00,89.1,59.4,29.18,South,191,8.1,8.1,37,0.00,,,0.00,VWS V13.01,2013-08-24 22:00:00,
2013-08-24 17:01:00,89.2,59.6,29.18,South,182,9.6,9.6,37,0.00,,,0.00,VWS V13.01,2013-08-24 22:01:00,
2013-08-24 17:04:00,89.1,59.4,29.18,South,179,8.7,8.7,37,0.00,,,0.00,VWS V13.01,2013-08-24 22:04:00,
2013-08-24 17:05:00,89.1,59.4,29.18,South,178,5.8,5.8,37,0.00,,,0.00,VWS V13.01,2013-08-24 22:05:00,
2013-08-24 17:06:00,89.6,59.9,29.18,South,188,10.5,10.5,37,0.00,,,0.00,VWS V13.01,2013-08-24 22:06:00,
2013-08-24 17:09:00,89.4,59.7,29.18,South,183,8.1,8.1,37,0.00,,,0.00,VWS V13.01,2013-08-24 22:09:00,
2013-08-24 17:10:00,89.2,59.6,29.18,South,176,8.3,8.3,37,0.00,,,0.00,VWS V13.01,2013-08-24 22:10:00,
2013-08-24 17:11:00,89.2,59.6,29.18,South,173,6.7,6.7,37,0.00,,,0.00,VWS V13.01,2013-08-24 22:11:00,
2013-08-24 17:14:00,88.9,59.3,29.18,South,178,10.1,10.1,37,0.00,,,0.00,VWS V13.01,2013-08-24 22:14:00,
2013-08-24 17:15:00,88.9,59.3,29.18,South,172,9.2,9.2,37,0.00,,,0.00,VWS V13.01,2013-08-24 22:15:00,
2013-08-24 17:16:00,89.1,59.4,29.18,South,175,5.4,5.4,37,0.00,,,0.00,VWS V13.01,2013-08-24 22:16:00,
2013-08-24 17:17:00,88.9,59.3,29.18,South,175,9.2,9.2,37,0.00,,,0.00,VWS V13.01,2013-08-24 22:17:00,
2013-08-24 17:19:00,89.1,59.4,29.18,SSW,200,7.6,7.6,37,0.00,,,0.00,VWS V13.01,2013-08-24 22:19:00,
2013-08-24 17:20:00,89.2,59.6,29.18,South,184,7.6,7.6,37,0.00,,,0.00,VWS V13.01,2013-08-24 22:20:00,
2013-08-24 17:21:00,89.4,59.7,29.18,South,175,8.3,8.3,37,0.00,,,0.00,VWS V13.01,2013-08-24 22:21:00,
2013-08-24 17:22:00,89.2,59.6,29.18,South,183,8.1,8.1,37,0.00,,,0.00,VWS V13.01,2013-08-24 22:22:00,
2013-08-24 17:24:00,89.2,59.6,29.18,South,180,8.7,8.7,37,0.00,,,0.00,VWS V13.01,2013-08-24 22:24:00,
2013-08-24 17:25:00,89.2,59.6,29.18,South,181,4.0,4.0,37,0.00,,,0.00,VWS V13.01,2013-08-24 22:25:00,
2013-08-24 17:26:00,89.4,59.7,29.18,South,173,8.7,8.7,37,0.00,,,0.00,VWS V13.01,2013-08-24 22:26:00,
2013-08-24 17:27:00,89.1,59.4,29.18,South,173,7.6,7.6,37,0.00,,,0.00,VWS V13.01,2013-08-24 22:27:00,
2013-08-24 17:29:00,89.2,59.6,29.18,South,188,7.6,7.6,37,0.00,,,0.00,VWS V13.01,2013-08-24 22:29:00,
2013-08-24 17:30:00,89.1,59.4,29.18,South,183,7.6,7.6,37,0.00,,,0.00,VWS V13.01,2013-08-24 22:30:00,
2013-08-24 17:31:00,89.1,59.4,29.18,South,182,8.7,8.7,37,0.00,,,0.00,VWS V13.01,2013-08-24 22:31:00,
2013-08-24 17:32:00,89.1,59.4,29.18,South,184,8.3,8.3,37,0.00,,,0.00,VWS V13.01,2013-08-24 22:32:00,
2013-08-24 17:34:00,88.7,59.1,29.18,South,180,8.7,8.7,37,0.00,,,0.00,VWS V13.01,2013-08-24 22:34:00,
2013-08-24 17:35:00,88.7,59.1,29.18,South,175,8.3,8.3,37,0.00,,,0.00,VWS V13.01,2013-08-24 22:35:00,
2013-08-24 17:36:00,88.7,59.1,29.18,South,179,8.1,8.1,37,0.00,,,0.00,VWS V13.01,2013-08-24 22:36:00,
2013-08-24 17:37:00,88.7,59.1,29.18,South,176,8.3,8.3,37,0.00,,,0.00,VWS V13.01,2013-08-24 22:37:00,
2013-08-24 17:39:00,88.7,59.1,29.18,South,187,3.1,3.1,37,0.00,,,0.00,VWS V13.01,2013-08-24 22:39:00,
2013-08-24 17:40:00,88.9,59.3,29.18,South,185,7.2,7.2,37,0.00,,,0.00,VWS V13.01,2013-08-24 22:40:00,
2013-08-24 17:41:00,88.9,59.3,29.18,South,178,7.6,7.6,37,0.00,,,0.00,VWS V13.01,2013-08-24 22:41:00,
2013-08-24 17:42:00,88.9,59.3,29.18,South,184,7.6,7.6,37,0.00,,,0.00,VWS V13.01,2013-08-24 22:42:00,
2013-08-24 17:45:00,88.9,59.3,29.18,SSE,160,5.4,5.4,37,0.00,,,0.00,VWS V13.01,2013-08-24 22:45:00,
2013-08-24 17:46:00,88.7,59.1,29.18,South,189,6.3,6.3,37,0.00,,,0.00,VWS V13.01,2013-08-24 22:46:00,
2013-08-24 17:47:00,88.7,59.1,29.18,SSW,199,9.6,9.6,37,0.00,,,0.00,VWS V13.01,2013-08-24 22:47:00,
2013-08-24 17:50:00,88.5,59.0,29.18,South,185,7.6,7.6,37,0.00,,,0.00,VWS V13.01,2013-08-24 22:50:00,
2013-08-24 17:51:00,88.7,59.1,29.18,South,184,8.1,8.1,37,0.00,,,0.00,VWS V13.01,2013-08-24 22:51:00,
2013-08-24 17:52:00,88.7,59.1,29.18,South,178,8.3,8.3,37,0.00,,,0.00,VWS V13.01,2013-08-24 22:52:00,
2013-08-24 17:55:00,88.2,58.6,29.18,South,178,7.6,7.6,37,0.00,,,0.00,VWS V13.01,2013-08-24 22:55:00,
2013-08-24 17:56:00,88.3,58.8,29.18,South,183,8.1,8.1,37,0.00,,,0.00,VWS V13.01,2013-08-24 22:56:00,
2013-08-24 17:57:00,88.3,58.8,29.18,South,179,7.2,7.2,37,0.00,,,0.00,VWS V13.01,2013-08-24 22:57:00,
2013-08-24 18:00:00,88.5,59.0,29.18,South,180,6.3,6.3,37,0.00,,,0.00,VWS V13.01,2013-08-24 23:00:00,
2013-08-24 18:01:00,88.5,59.0,29.18,South,189,6.3,6.3,37,0.00,,,0.00,VWS V13.01,2013-08-24 23:01:00,
2013-08-24 18:02:00,88.7,59.1,29.18,South,181,5.8,5.8,37,0.00,,,0.00,VWS V13.01,2013-08-24 23:02:00,
2013-08-24 18:05:00,88.7,59.1,29.18,South,179,6.3,6.3,37,0.00,,,0.00,VWS V13.01,2013-08-24 23:05:00,
2013-08-24 18:06:00,88.7,59.1,29.18,South,183,5.8,5.8,37,0.00,,,0.00,VWS V13.01,2013-08-24 23:06:00,
2013-08-24 18:07:00,88.7,59.1,29.18,SSW,198,6.3,6.3,37,0.00,,,0.00,VWS V13.01,2013-08-24 23:07:00,
2013-08-24 18:10:00,88.5,59.0,29.18,South,191,5.8,5.8,37,0.00,,,0.00,VWS V13.01,2013-08-24 23:10:00,
2013-08-24 18:11:00,88.5,59.0,29.18,SSE,167,7.6,7.6,37,0.00,,,0.00,VWS V13.01,2013-08-24 23:11:00,
2013-08-24 18:12:00,88.5,59.0,29.18,South,172,3.6,3.6,37,0.00,,,0.00,VWS V13.01,2013-08-24 23:12:00,
2013-08-24 18:15:00,88.2,58.6,29.18,South,182,8.1,8.1,37,0.00,,,0.00,VWS V13.01,2013-08-24 23:15:00,
2013-08-24 18:16:00,88.0,58.5,29.18,South,179,7.6,7.6,37,0.00,,,0.00,VWS V13.01,2013-08-24 23:16:00,
2013-08-24 18:17:00,87.8,58.3,29.18,South,178,5.8,5.8,37,0.00,,,0.00,VWS V13.01,2013-08-24 23:17:00,
2013-08-24 18:18:00,87.8,58.3,29.18,South,186,6.7,6.7,37,0.00,,,0.00,VWS V13.01,2013-08-24 23:18:00,
2013-08-24 18:20:00,87.8,58.3,29.18,SSW,197,7.6,7.6,37,0.00,,,0.00,VWS V13.01,2013-08-24 23:20:00,
2013-08-24 18:21:00,87.8,58.3,29.18,South,179,5.4,5.4,37,0.00,,,0.00,VWS V13.01,2013-08-24 23:21:00,
2013-08-24 18:22:00,87.8,58.3,29.18,South,178,6.3,6.3,37,0.00,,,0.00,VWS V13.01,2013-08-24 23:22:00,
2013-08-24 18:23:00,87.8,58.3,29.18,South,176,5.8,5.8,37,0.00,,,0.00,VWS V13.01,2013-08-24 23:23:00,
2013-08-24 18:25:00,87.8,58.3,29.18,South,181,8.3,8.3,37,0.00,,,0.00,VWS V13.01,2013-08-24 23:25:00,
2013-08-24 18:27:00,87.6,62.4,29.18,South,176,5.8,5.8,43,0.00,,,0.00,VWS V13.01,2013-08-24 23:27:00,
2013-08-24 18:28:00,87.6,62.4,29.18,South,177,5.4,5.4,43,0.00,,,0.00,VWS V13.01,2013-08-24 23:28:00,
2013-08-24 18:30:00,87.6,62.4,29.18,South,182,5.4,5.4,43,0.00,,,0.00,VWS V13.01,2013-08-24 23:30:00,
2013-08-24 18:31:00,87.6,62.4,29.18,South,181,6.7,6.7,43,0.00,,,0.00,VWS V13.01,2013-08-24 23:31:00,
2013-08-24 18:32:00,87.4,62.2,29.18,South,181,5.8,5.8,43,0.00,,,0.00,VWS V13.01,2013-08-24 23:32:00,
2013-08-24 18:33:00,87.6,62.4,29.18,South,182,5.4,5.4,43,0.00,,,0.00,VWS V13.01,2013-08-24 23:33:00,
2013-08-24 18:35:00,87.4,62.2,29.18,South,178,6.3,6.3,43,0.00,,,0.00,VWS V13.01,2013-08-24 23:35:00,
2013-08-24 18:36:00,87.3,62.1,29.18,South,180,5.4,5.4,43,0.00,,,0.00,VWS V13.01,2013-08-24 23:36:00,
2013-08-24 18:37:00,87.3,62.1,29.18,South,184,6.3,6.3,43,0.00,,,0.00,VWS V13.01,2013-08-24 23:37:00,
2013-08-24 18:38:00,87.4,62.2,29.18,SSE,167,5.4,5.4,43,0.00,,,0.00,VWS V13.01,2013-08-24 23:38:00,
2013-08-24 18:40:00,87.3,62.1,29.18,South,176,4.9,4.9,43,0.00,,,0.00,VWS V13.01,2013-08-24 23:40:00,
2013-08-24 18:41:00,87.3,62.1,29.18,South,178,5.4,5.4,43,0.00,,,0.00,VWS V13.01,2013-08-24 23:41:00,
2013-08-24 18:42:00,87.1,61.9,29.18,SSW,192,7.6,7.6,43,0.00,,,0.00,VWS V13.01,2013-08-24 23:42:00,
2013-08-24 18:43:00,87.1,61.9,29.18,South,178,7.6,7.6,43,0.00,,,0.00,VWS V13.01,2013-08-24 23:43:00,
2013-08-24 18:45:00,86.9,61.7,29.18,South,188,5.4,5.4,43,0.00,,,0.00,VWS V13.01,2013-08-24 23:45:00,
2013-08-24 18:46:00,87.1,61.9,29.18,South,177,8.1,8.1,43,0.00,,,0.00,VWS V13.01,2013-08-24 23:46:00,
2013-08-24 18:47:00,86.9,61.7,29.18,SSW,194,5.8,5.8,43,0.00,,,0.00,VWS V13.01,2013-08-24 23:47:00,
2013-08-24 18:48:00,86.9,61.7,29.18,South,187,8.3,8.3,43,0.00,,,0.00,VWS V13.01,2013-08-24 23:48:00,
2013-08-24 18:50:00,86.7,61.6,29.18,South,181,5.4,5.4,43,0.00,,,0.00,VWS V13.01,2013-08-24 23:50:00,
2013-08-24 18:51:00,86.7,61.6,29.18,South,176,5.8,5.8,43,0.00,,,0.00,VWS V13.01,2013-08-24 23:51:00,
2013-08-24 18:52:00,86.7,61.6,29.18,South,179,5.8,5.8,43,0.00,,,0.00,VWS V13.01,2013-08-24 23:52:00,
2013-08-24 18:53:00,86.5,61.4,29.18,South,177,5.4,5.4,43,0.00,,,0.00,VWS V13.01,2013-08-24 23:53:00,
2013-08-24 18:55:00,86.5,61.4,29.18,South,170,7.6,7.6,43,0.00,,,0.00,VWS V13.01,2013-08-24 23:55:00,
2013-08-24 18:56:00,86.5,61.4,29.18,South,191,7.6,7.6,43,0.00,,,0.00,VWS V13.01,2013-08-24 23:56:00,
2013-08-24 18:57:00,86.5,61.4,29.18,South,185,6.3,6.3,43,0.00,,,0.00,VWS V13.01,2013-08-24 23:57:00,
2013-08-24 18:58:00,86.5,61.4,29.18,South,180,6.3,6.3,43,0.00,,,0.00,VWS V13.01,2013-08-24 23:58:00,
2013-08-24 19:01:00,86.4,61.2,29.18,South,177,4.0,4.0,43,0.00,,,0.00,VWS V13.01,2013-08-25 00:01:00,
2013-08-24 19:02:00,86.4,61.2,29.18,South,183,5.4,5.4,43,0.00,,,0.00,VWS V13.01,2013-08-25 00:02:00,
2013-08-24 19:03:00,86.2,61.1,29.18,South,181,5.8,5.8,43,0.00,,,0.00,VWS V13.01,2013-08-25 00:03:00,
2013-08-24 19:06:00,86.2,61.1,29.18,South,186,4.5,4.5,43,0.00,,,0.00,VWS V13.01,2013-08-25 00:06:00,
2013-08-24 19:07:00,86.0,60.9,29.18,South,181,5.4,5.4,43,0.00,,,0.00,VWS V13.01,2013-08-25 00:07:00,
2013-08-24 19:08:00,86.0,60.9,29.18,South,184,6.3,6.3,43,0.00,,,0.00,VWS V13.01,2013-08-25 00:08:00,
2013-08-24 19:09:00,86.0,60.9,29.18,South,184,5.8,5.8,43,0.00,,,0.00,VWS V13.01,2013-08-25 00:09:00,
2013-08-24 19:11:00,85.8,60.8,29.18,South,182,5.8,5.8,43,0.00,,,0.00,VWS V13.01,2013-08-25 00:11:00,
2013-08-24 19:12:00,85.8,60.8,29.18,South,186,5.8,5.8,43,0.00,,,0.00,VWS V13.01,2013-08-25 00:12:00,
2013-08-24 19:13:00,85.6,60.6,29.18,South,180,5.8,5.8,43,0.00,,,0.00,VWS V13.01,2013-08-25 00:13:00,
2013-08-24 19:14:00,85.6,60.6,29.18,South,177,5.4,5.4,43,0.00,,,0.00,VWS V13.01,2013-08-25 00:14:00,
2013-08-24 19:16:00,85.5,60.4,29.18,South,183,3.6,3.6,43,0.00,,,0.00,VWS V13.01,2013-08-25 00:16:00,
2013-08-24 19:17:00,85.5,60.4,29.18,South,180,5.8,5.8,43,0.00,,,0.00,VWS V13.01,2013-08-25 00:17:00,
2013-08-24 19:18:00,85.5,60.4,29.18,South,183,5.4,5.4,43,0.00,,,0.00,VWS V13.01,2013-08-25 00:18:00,
2013-08-24 19:19:00,85.3,60.3,29.18,South,175,6.3,6.3,43,0.00,,,0.00,VWS V13.01,2013-08-25 00:19:00,
2013-08-24 19:21:00,85.3,60.3,29.18,South,183,3.6,3.6,43,0.00,,,0.00,VWS V13.01,2013-08-25 00:21:00,
2013-08-24 19:22:00,85.3,60.3,29.18,South,186,5.4,5.4,43,0.00,,,0.00,VWS V13.01,2013-08-25 00:22:00,
2013-08-24 19:23:00,85.1,60.1,29.18,SSW,192,4.0,4.0,43,0.00,,,0.00,VWS V13.01,2013-08-25 00:23:00,
2013-08-24 19:24:00,85.1,60.1,29.18,South,180,5.8,5.8,43,0.00,,,0.00,VWS V13.01,2013-08-25 00:24:00,
2013-08-24 19:26:00,84.9,60.0,29.18,South,177,6.3,6.3,43,0.00,,,0.00,VWS V13.01,2013-08-25 00:26:00,
2013-08-24 19:27:00,84.7,59.8,29.18,South,179,5.4,5.4,43,0.00,,,0.00,VWS V13.01,2013-08-25 00:27:00,
2013-08-24 19:28:00,84.6,59.6,29.18,South,182,5.8,5.8,43,0.00,,,0.00,VWS V13.01,2013-08-25 00:28:00,
2013-08-24 19:29:00,84.6,59.6,29.18,South,171,5.4,5.4,43,0.00,,,0.00,VWS V13.01,2013-08-25 00:29:00,
2013-08-24 19:31:00,84.4,59.5,29.18,South,186,4.5,4.5,43,0.00,,,0.00,VWS V13.01,2013-08-25 00:31:00,
2013-08-24 19:32:00,84.4,59.5,29.18,South,183,4.9,4.9,43,0.00,,,0.00,VWS V13.01,2013-08-25 00:32:00,
2013-08-24 19:33:00,84.2,59.3,29.18,South,177,3.6,3.6,43,0.00,,,0.00,VWS V13.01,2013-08-25 00:33:00,
2013-08-24 19:34:00,84.2,59.3,29.18,South,178,4.0,4.0,43,0.00,,,0.00,VWS V13.01,2013-08-25 00:34:00,
2013-08-24 19:37:00,84.0,59.1,29.18,South,178,4.9,4.9,43,0.00,,,0.00,VWS V13.01,2013-08-25 00:37:00,
2013-08-24 19:38:00,84.0,59.1,29.18,South,178,4.9,4.9,43,0.00,,,0.00,VWS V13.01,2013-08-25 00:38:00,
2013-08-24 19:39:00,83.8,59.0,29.18,South,180,3.6,3.6,43,0.00,,,0.00,VWS V13.01,2013-08-25 00:39:00,
2013-08-24 19:42:00,83.7,58.8,29.18,South,184,0.0,0.0,43,0.00,,,0.00,VWS V13.01,2013-08-25 00:42:00,
2013-08-24 19:43:00,83.7,58.8,29.18,South,180,0.0,0.0,43,0.00,,,0.00,VWS V13.01,2013-08-25 00:43:00,
2013-08-24 19:44:00,83.5,58.7,29.18,SSW,195,0.0,0.0,43,0.00,,,0.00,VWS V13.01,2013-08-25 00:44:00,
2013-08-24 19:47:00,83.5,58.7,29.18,SSW,197,3.6,3.6,43,0.00,,,0.00,VWS V13.01,2013-08-25 00:47:00,
2013-08-24 19:49:00,83.5,58.7,29.18,South,186,5.4,5.4,43,0.00,,,0.00,VWS V13.01,2013-08-25 00:49:00,
2013-08-24 19:52:00,83.3,58.5,29.18,South,183,4.5,4.5,43,0.00,,,0.00,VWS V13.01,2013-08-25 00:52:00,
2013-08-24 19:54:00,83.1,58.3,29.18,South,178,3.6,3.6,43,0.00,,,0.00,VWS V13.01,2013-08-25 00:54:00,
2013-08-24 19:57:00,82.8,58.0,29.18,South,178,2.7,2.7,43,0.00,,,0.00,VWS V13.01,2013-08-25 00:57:00,
2013-08-24 19:59:00,82.6,57.8,29.18,South,177,3.6,3.6,43,0.00,,,0.00,VWS V13.01,2013-08-25 00:59:00,
2013-08-24 20:02:00,82.4,57.7,29.18,South,177,3.1,3.1,43,0.00,,,0.00,VWS V13.01,2013-08-25 01:02:00,
2013-08-24 20:04:00,82.2,61.2,29.18,South,175,2.7,2.7,49,0.00,,,0.00,VWS V13.01,2013-08-25 01:04:00,
2013-08-24 20:07:00,82.2,61.2,29.18,South,180,4.0,4.0,49,0.00,,,0.00,VWS V13.01,2013-08-25 01:07:00,
2013-08-24 20:08:00,82.2,61.2,29.18,South,181,3.6,3.6,49,0.00,,,0.00,VWS V13.01,2013-08-25 01:08:00,
2013-08-24 20:09:00,82.0,61.0,29.18,South,177,3.6,3.6,49,0.00,,,0.00,VWS V13.01,2013-08-25 01:09:00,
2013-08-24 20:10:00,82.2,61.2,29.18,South,177,3.1,3.1,49,0.00,,,0.00,VWS V13.01,2013-08-25 01:10:00,
2013-08-24 20:12:00,82.0,61.0,29.18,South,187,3.1,3.1,49,0.00,,,0.00,VWS V13.01,2013-08-25 01:12:00,
2013-08-24 20:13:00,82.0,61.0,29.18,South,187,4.9,4.9,49,0.00,,,0.00,VWS V13.01,2013-08-25 01:13:00,
2013-08-24 20:14:00,82.0,61.0,29.18,South,187,0.0,0.0,49,0.00,,,0.00,VWS V13.01,2013-08-25 01:14:00,
2013-08-24 20:15:00,82.0,61.0,29.18,SSW,199,0.0,0.0,49,0.00,,,0.00,VWS V13.01,2013-08-25 01:15:00,
2013-08-24 20:17:00,81.9,60.8,29.18,South,180,3.1,3.1,49,0.00,,,0.00,VWS V13.01,2013-08-25 01:17:00,
2013-08-24 20:18:00,81.9,60.8,29.18,South,180,3.6,3.6,49,0.00,,,0.00,VWS V13.01,2013-08-25 01:18:00,
2013-08-24 20:19:00,81.7,60.7,29.18,SSW,205,2.2,2.2,49,0.00,,,0.00,VWS V13.01,2013-08-25 01:19:00,
2013-08-24 20:20:00,81.7,60.7,29.18,SSW,195,2.2,2.2,49,0.00,,,0.00,VWS V13.01,2013-08-25 01:20:00,
2013-08-24 20:22:00,81.5,60.5,29.18,SSW,198,0.0,0.0,49,0.00,,,0.00,VWS V13.01,2013-08-25 01:22:00,
2013-08-24 20:23:00,81.5,60.5,29.18,SSW,197,0.0,0.0,49,0.00,,,0.00,VWS V13.01,2013-08-25 01:23:00,
2013-08-24 20:24:00,81.5,60.5,29.18,SSW,196,0.0,0.0,49,0.00,,,0.00,VWS V13.01,2013-08-25 01:24:00,
2013-08-24 20:25:00,81.3,60.3,29.18,SSW,193,0.0,0.0,49,0.00,,,0.00,VWS V13.01,2013-08-25 01:25:00,
2013-08-24 20:27:00,81.1,60.2,29.18,SSW,194,2.7,2.7,49,0.00,,,0.00,VWS V13.01,2013-08-25 01:27:00,
2013-08-24 20:28:00,81.1,60.2,29.18,SSW,194,2.2,2.2,49,0.00,,,0.00,VWS V13.01,2013-08-25 01:28:00,
2013-08-24 20:29:00,81.1,60.2,29.18,SSW,198,0.0,0.0,49,0.00,,,0.00,VWS V13.01,2013-08-25 01:29:00,
2013-08-24 20:30:00,81.0,60.0,29.18,South,186,0.0,0.0,49,0.00,,,0.00,VWS V13.01,2013-08-25 01:30:00,
2013-08-24 20:32:00,81.0,60.0,29.18,South,170,3.6,3.6,49,0.00,,,0.00,VWS V13.01,2013-08-25 01:32:00,
2013-08-24 20:33:00,80.8,59.9,29.18,SSE,167,3.1,3.1,49,0.00,,,0.00,VWS V13.01,2013-08-25 01:33:00,
2013-08-24 20:34:00,80.8,59.9,29.18,South,170,0.0,0.0,49,0.00,,,0.00,VWS V13.01,2013-08-25 01:34:00,
2013-08-24 20:35:00,80.8,59.9,29.18,South,176,0.0,0.0,49,0.00,,,0.00,VWS V13.01,2013-08-25 01:35:00,
2013-08-24 20:38:00,80.6,59.7,29.18,SSE,165,2.7,2.7,49,0.00,,,0.00,VWS V13.01,2013-08-25 01:38:00,
2013-08-24 20:39:00,80.6,59.7,29.18,South,185,0.0,0.0,49,0.00,,,0.00,VWS V13.01,2013-08-25 01:39:00,
2013-08-24 20:40:00,80.6,59.7,29.18,South,183,0.0,0.0,49,0.00,,,0.00,VWS V13.01,2013-08-25 01:40:00,
2013-08-24 20:43:00,80.4,59.5,29.18,South,183,3.6,3.6,49,0.00,,,0.00,VWS V13.01,2013-08-25 01:43:00,
2013-08-24 20:45:00,80.4,59.5,29.18,SSW,199,0.0,0.0,49,0.00,,,0.00,VWS V13.01,2013-08-25 01:45:00,
2013-08-24 20:48:00,80.2,59.4,29.18,SSW,194,0.0,0.0,49,0.00,,,0.00,VWS V13.01,2013-08-25 01:48:00,
2013-08-24 20:50:00,80.1,59.2,29.18,SSW,208,0.0,0.0,49,0.00,,,0.00,VWS V13.01,2013-08-25 01:50:00,
2013-08-24 20:53:00,80.2,59.4,29.18,SSW,196,2.2,2.2,49,0.00,,,0.00,VWS V13.01,2013-08-25 01:53:00,
2013-08-24 20:55:00,80.1,59.2,29.21,SSW,200,0.0,0.0,49,0.00,,,0.00,VWS V13.01,2013-08-25 01:55:00,
2013-08-24 20:58:00,79.7,58.9,29.21,SSW,199,0.0,0.0,49,0.00,,,0.00,VWS V13.01,2013-08-25 01:58:00,
2013-08-24 21:00:00,79.7,58.9,29.21,South,176,0.0,0.0,49,0.00,,,0.00,VWS V13.01,2013-08-25 02:00:00,
2013-08-24 21:03:00,79.5,58.7,29.21,South,178,0.0,0.0,49,0.00,,,0.00,VWS V13.01,2013-08-25 02:03:00,
2013-08-24 21:05:00,79.5,58.7,29.21,South,180,0.0,0.0,49,0.00,,,0.00,VWS V13.01,2013-08-25 02:05:00,
2013-08-24 21:08:00,79.3,58.5,29.21,South,182,0.0,0.0,49,0.00,,,0.00,VWS V13.01,2013-08-25 02:08:00,
2013-08-24 21:09:00,79.3,58.5,29.21,South,182,0.0,0.0,49,0.00,,,0.00,VWS V13.01,2013-08-25 02:09:00,
2013-08-24 21:10:00,79.3,58.5,29.21,South,181,0.0,0.0,49,0.00,,,0.00,VWS V13.01,2013-08-25 02:10:00,
2013-08-24 21:11:00,79.3,58.5,29.21,South,181,0.0,0.0,49,0.00,,,0.00,VWS V13.01,2013-08-25 02:11:00,
2013-08-24 21:13:00,79.3,58.5,29.21,South,170,0.0,0.0,49,0.00,,,0.00,VWS V13.01,2013-08-25 02:13:00,
2013-08-24 21:14:00,79.3,58.5,29.21,SSE,168,0.0,0.0,49,0.00,,,0.00,VWS V13.01,2013-08-25 02:14:00,
2013-08-24 21:15:00,79.3,58.5,29.21,SSW,197,3.6,3.6,49,0.00,,,0.00,VWS V13.01,2013-08-25 02:15:00,
2013-08-24 21:16:00,79.3,58.5,29.21,SSW,193,0.0,0.0,49,0.00,,,0.00,VWS V13.01,2013-08-25 02:16:00,
2013-08-24 21:18:00,79.2,58.4,29.21,South,176,0.0,0.0,49,0.00,,,0.00,VWS V13.01,2013-08-25 02:18:00,
2013-08-24 21:19:00,79.2,58.4,29.21,South,175,0.0,0.0,49,0.00,,,0.00,VWS V13.01,2013-08-25 02:19:00,
2013-08-24 21:20:00,79.2,58.4,29.21,South,190,0.0,0.0,49,0.00,,,0.00,VWS V13.01,2013-08-25 02:20:00,
2013-08-24 21:21:00,79.2,58.4,29.21,South,183,0.0,0.0,49,0.00,,,0.00,VWS V13.01,2013-08-25 02:21:00,
2013-08-24 21:23:00,79.0,58.2,29.21,South,184,0.0,0.0,49,0.00,,,0.00,VWS V13.01,2013-08-25 02:23:00,
2013-08-24 21:24:00,79.0,58.2,29.21,South,184,0.0,0.0,49,0.00,,,0.00,VWS V13.01,2013-08-25 02:24:00,
2013-08-24 21:25:00,79.0,58.2,29.21,SSW,198,0.0,0.0,49,0.00,,,0.00,VWS V13.01,2013-08-25 02:25:00,
2013-08-24 21:26:00,79.0,58.2,29.21,South,174,0.0,0.0,49,0.00,,,0.00,VWS V13.01,2013-08-25 02:26:00,
2013-08-24 21:29:00,78.8,58.0,29.21,SSW,210,0.0,0.0,49,0.00,,,0.00,VWS V13.01,2013-08-25 02:29:00,
2013-08-24 21:30:00,78.8,58.0,29.21,SSW,197,0.0,0.0,49,0.00,,,0.00,VWS V13.01,2013-08-25 02:30:00,
2013-08-24 21:31:00,78.6,61.1,29.21,SSW,196,0.0,0.0,55,0.00,,,0.00,VWS V13.01,2013-08-25 02:31:00,
2013-08-24 21:34:00,78.6,61.1,29.21,SSW,195,0.0,0.0,55,0.00,,,0.00,VWS V13.01,2013-08-25 02:34:00,
2013-08-24 21:36:00,78.4,61.0,29.21,South,176,0.0,0.0,55,0.00,,,0.00,VWS V13.01,2013-08-25 02:36:00,
2013-08-24 21:39:00,78.6,61.1,29.21,SSE,156,0.0,0.0,55,0.00,,,0.00,VWS V13.01,2013-08-25 02:39:00,
2013-08-24 21:41:00,78.4,61.0,29.21,South,184,3.1,3.1,55,0.00,,,0.00,VWS V13.01,2013-08-25 02:41:00,
2013-08-24 21:44:00,78.4,61.0,29.21,South,182,0.0,0.0,55,0.00,,,0.00,VWS V13.01,2013-08-25 02:44:00,
2013-08-24 21:46:00,78.4,61.0,29.21,South,181,2.2,2.2,55,0.00,,,0.00,VWS V13.01,2013-08-25 02:46:00,
2013-08-24 21:49:00,78.3,60.8,29.21,SSW,197,2.7,2.7,55,0.00,,,0.00,VWS V13.01,2013-08-25 02:49:00,
2013-08-24 21:50:00,78.3,60.8,29.21,SSW,192,0.0,0.0,55,0.00,,,0.00,VWS V13.01,2013-08-25 02:50:00,
2013-08-24 21:51:00,78.3,60.8,29.21,South,183,0.0,0.0,55,0.00,,,0.00,VWS V13.01,2013-08-25 02:51:00,
2013-08-24 21:54:00,78.1,60.6,29.21,South,180,0.0,0.0,55,0.00,,,0.00,VWS V13.01,2013-08-25 02:54:00,
2013-08-24 21:55:00,78.1,60.6,29.21,South,181,0.0,0.0,55,0.00,,,0.00,VWS V13.01,2013-08-25 02:55:00,
2013-08-24 21:56:00,78.1,60.6,29.21,South,184,3.1,3.1,55,0.00,,,0.00,VWS V13.01,2013-08-25 02:56:00,
2013-08-24 21:59:00,78.1,60.6,29.21,South,185,0.0,0.0,55,0.00,,,0.00,VWS V13.01,2013-08-25 02:59:00,
2013-08-24 22:00:00,77.9,60.5,29.21,South,183,2.2,2.2,55,0.00,,,0.00,VWS V13.01,2013-08-25 03:00:00,
2013-08-24 22:01:00,77.9,60.5,29.21,South,177,2.7,2.7,55,0.00,,,0.00,VWS V13.01,2013-08-25 03:01:00,
2013-08-24 22:04:00,77.7,60.3,29.21,SSW,198,2.7,2.7,55,0.00,,,0.00,VWS V13.01,2013-08-25 03:04:00,
2013-08-24 22:05:00,77.7,60.3,29.21,SSW,196,0.0,0.0,55,0.00,,,0.00,VWS V13.01,2013-08-25 03:05:00,
2013-08-24 22:06:00,77.5,60.1,29.21,South,182,2.2,2.2,55,0.00,,,0.00,VWS V13.01,2013-08-25 03:06:00,
2013-08-24 22:09:00,77.4,60.0,29.21,South,169,2.7,2.7,55,0.00,,,0.00,VWS V13.01,2013-08-25 03:09:00,
2013-08-24 22:10:00,77.4,60.0,29.21,SSW,200,2.2,2.2,55,0.00,,,0.00,VWS V13.01,2013-08-25 03:10:00,
2013-08-24 22:11:00,77.4,60.0,29.21,South,177,0.0,0.0,55,0.00,,,0.00,VWS V13.01,2013-08-25 03:11:00,
2013-08-24 22:12:00,77.4,60.0,29.21,South,182,0.0,0.0,55,0.00,,,0.00,VWS V13.01,2013-08-25 03:12:00,
2013-08-24 22:14:00,77.2,59.8,29.21,South,179,0.0,0.0,55,0.00,,,0.00,VWS V13.01,2013-08-25 03:14:00,
2013-08-24 22:15:00,77.2,59.8,29.21,WSW,250,0.0,0.0,55,0.00,,,0.00,VWS V13.01,2013-08-25 03:15:00,
2013-08-24 22:16:00,77.2,59.8,29.21,SSW,192,0.0,0.0,55,0.00,,,0.00,VWS V13.01,2013-08-25 03:16:00,
2013-08-24 22:17:00,77.2,59.8,29.21,South,188,0.0,0.0,55,0.00,,,0.00,VWS V13.01,2013-08-25 03:17:00,
2013-08-24 22:19:00,77.0,59.6,29.21,SSW,203,0.0,0.0,55,0.00,,,0.00,VWS V13.01,2013-08-25 03:19:00,
2013-08-24 22:20:00,77.0,59.6,29.21,SSW,196,0.0,0.0,55,0.00,,,0.00,VWS V13.01,2013-08-25 03:20:00,
2013-08-24 22:21:00,77.0,59.6,29.21,South,190,0.0,0.0,55,0.00,,,0.00,VWS V13.01,2013-08-25 03:21:00,
2013-08-24 22:22:00,76.8,59.5,29.21,South,190,0.0,0.0,55,0.00,,,0.00,VWS V13.01,2013-08-25 03:22:00,
2013-08-24 22:24:00,76.8,59.5,29.21,South,190,0.0,0.0,55,0.00,,,0.00,VWS V13.01,2013-08-25 03:24:00,
2013-08-24 22:25:00,76.8,59.5,29.21,South,190,0.0,0.0,55,0.00,,,0.00,VWS V13.01,2013-08-25 03:25:00,
2013-08-24 22:26:00,76.8,59.5,29.21,South,182,0.0,0.0,55,0.00,,,0.00,VWS V13.01,2013-08-25 03:26:00,
2013-08-24 22:27:00,76.8,59.5,29.21,South,182,0.0,0.0,55,0.00,,,0.00,VWS V13.01,2013-08-25 03:27:00,
2013-08-24 22:29:00,76.6,59.3,29.21,South,182,0.0,0.0,55,0.00,,,0.00,VWS V13.01,2013-08-25 03:29:00,
2013-08-24 22:30:00,76.6,59.3,29.21,South,182,0.0,0.0,55,0.00,,,0.00,VWS V13.01,2013-08-25 03:30:00,
2013-08-24 22:31:00,76.6,59.3,29.21,South,182,0.0,0.0,55,0.00,,,0.00,VWS V13.01,2013-08-25 03:31:00,
2013-08-24 22:32:00,76.6,59.3,29.21,South,182,0.0,0.0,55,0.00,,,0.00,VWS V13.01,2013-08-25 03:32:00,
2013-08-24 22:34:00,76.5,59.1,29.21,South,182,0.0,0.0,55,0.00,,,0.00,VWS V13.01,2013-08-25 03:34:00,
2013-08-24 22:35:00,76.6,59.3,29.21,South,180,0.0,0.0,55,0.00,,,0.00,VWS V13.01,2013-08-25 03:35:00,
2013-08-24 22:36:00,76.6,59.3,29.21,South,181,0.0,0.0,55,0.00,,,0.00,VWS V13.01,2013-08-25 03:36:00,
2013-08-24 22:37:00,76.6,59.3,29.21,South,183,0.0,0.0,55,0.00,,,0.00,VWS V13.01,2013-08-25 03:37:00,
2013-08-24 22:39:00,76.6,59.3,29.21,South,173,3.6,3.6,55,0.00,,,0.00,VWS V13.01,2013-08-25 03:39:00,
2013-08-24 22:40:00,76.6,59.3,29.21,South,169,2.7,2.7,55,0.00,,,0.00,VWS V13.01,2013-08-25 03:40:00,
2013-08-24 22:41:00,76.6,59.3,29.21,South,170,2.2,2.2,55,0.00,,,0.00,VWS V13.01,2013-08-25 03:41:00,
2013-08-24 22:43:00,76.5,59.1,29.21,SSE,167,2.7,2.7,55,0.00,,,0.00,VWS V13.01,2013-08-25 03:43:00,
2013-08-24 22:44:00,76.5,59.1,29.21,South,178,4.0,4.0,55,0.00,,,0.00,VWS V13.01,2013-08-25 03:44:00,
2013-08-24 22:46:00,76.5,59.1,29.21,South,187,4.9,4.9,55,0.00,,,0.00,VWS V13.01,2013-08-25 03:46:00,
2013-08-24 22:48:00,76.5,59.1,29.21,South,169,3.1,3.1,55,0.00,,,0.00,VWS V13.01,2013-08-25 03:48:00,
2013-08-24 22:49:00,76.5,59.1,29.21,South,172,4.0,4.0,55,0.00,,,0.00,VWS V13.01,2013-08-25 03:49:00,
2013-08-24 22:50:00,76.5,59.1,29.21,South,172,4.0,4.0,55,0.00,,,0.00,VWS V13.01,2013-08-25 03:50:00,
2013-08-24 22:51:00,76.5,59.1,29.21,South,179,3.6,3.6,55,0.00,,,0.00,VWS V13.01,2013-08-25 03:51:00,
2013-08-24 22:53:00,76.5,59.1,29.21,South,187,3.1,3.1,55,0.00,,,0.00,VWS V13.01,2013-08-25 03:53:00,
2013-08-24 22:55:00,76.1,58.8,29.21,South,181,3.1,3.1,55,0.00,,,0.00,VWS V13.01,2013-08-25 03:55:00,
2013-08-24 22:56:00,75.9,58.6,29.21,SSE,161,3.6,3.6,55,0.00,,,0.00,VWS V13.01,2013-08-25 03:56:00,
2013-08-24 22:58:00,75.9,58.6,29.21,SSW,204,2.7,2.7,55,0.00,,,0.00,VWS V13.01,2013-08-25 03:58:00,
2013-08-24 23:00:00,75.9,58.6,29.21,South,175,3.1,3.1,55,0.00,,,0.00,VWS V13.01,2013-08-25 04:00:00,
2013-08-24 23:01:00,75.9,58.6,29.21,South,187,3.1,3.1,55,0.00,,,0.00,VWS V13.01,2013-08-25 04:01:00,
2013-08-24 23:02:00,75.9,58.6,29.21,South,182,3.1,3.1,55,0.00,,,0.00,VWS V13.01,2013-08-25 04:02:00,
2013-08-24 23:06:00,76.1,58.8,29.21,SSE,151,4.0,4.0,55,0.00,,,0.00,VWS V13.01,2013-08-25 04:06:00,
2013-08-24 23:07:00,76.1,58.8,29.21,South,188,3.1,3.1,55,0.00,,,0.00,VWS V13.01,2013-08-25 04:07:00,
2013-08-24 23:11:00,75.9,58.6,29.21,South,189,2.2,2.2,55,0.00,,,0.00,VWS V13.01,2013-08-25 04:11:00,
2013-08-24 23:12:00,75.9,58.6,29.21,SSE,150,2.7,2.7,55,0.00,,,0.00,VWS V13.01,2013-08-25 04:12:00,
2013-08-24 23:16:00,75.7,58.4,29.21,SSE,161,2.7,2.7,55,0.00,,,0.00,VWS V13.01,2013-08-25 04:16:00,
2013-08-24 23:17:00,75.7,58.4,29.21,SSE,162,2.7,2.7,55,0.00,,,0.00,VWS V13.01,2013-08-25 04:17:00,
2013-08-24 23:22:00,75.6,58.3,29.21,South,185,4.0,4.0,55,0.00,,,0.00,VWS V13.01,2013-08-25 04:22:00,
2013-08-24 23:27:00,75.6,58.3,29.21,SSW,196,4.0,4.0,55,0.00,,,0.00,VWS V13.01,2013-08-25 04:27:00,
2013-08-24 23:32:00,75.4,58.1,29.21,South,184,0.0,0.0,55,0.00,,,0.00,VWS V13.01,2013-08-25 04:32:00,
2013-08-24 23:33:00,75.4,58.1,29.21,South,184,4.0,4.0,55,0.00,,,0.00,VWS V13.01,2013-08-25 04:33:00,
2013-08-24 23:37:00,75.2,57.9,29.21,South,184,3.6,3.6,55,0.00,,,0.00,VWS V13.01,2013-08-25 04:37:00,
2013-08-24 23:38:00,75.2,57.9,29.21,South,184,3.6,3.6,55,0.00,,,0.00,VWS V13.01,2013-08-25 04:38:00,
2013-08-24 23:42:00,75.2,57.9,29.21,South,180,4.0,4.0,55,0.00,,,0.00,VWS V13.01,2013-08-25 04:42:00,
2013-08-24 23:43:00,75.0,57.8,29.21,South,180,3.1,3.1,55,0.00,,,0.00,VWS V13.01,2013-08-25 04:43:00,
2013-08-24 23:47:00,74.8,57.6,29.21,South,179,5.8,5.8,55,0.00,,,0.00,VWS V13.01,2013-08-25 04:47:00,
2013-08-24 23:48:00,74.8,57.6,29.21,South,178,4.5,4.5,55,0.00,,,0.00,VWS V13.01,2013-08-25 04:48:00,
2013-08-24 23:52:00,75.0,57.8,29.21,South,180,4.9,4.9,55,0.00,,,0.00,VWS V13.01,2013-08-25 04:52:00,
2013-08-24 23:53:00,74.8,57.6,29.21,South,180,4.0,4.0,55,0.00,,,0.00,VWS V13.01,2013-08-25 04:53:00,
2013-08-24 23:57:00,74.8,57.6,29.21,South,183,4.0,4.0,55,0.00,,,0.00,VWS V13.01,2013-08-25 04:57:00,
2013-08-24 23:58:00,74.8,57.6,29.21,South,183,4.9,4.9,55,0.00,,,0.00,VWS V13.01,2013-08-25 04:58:00,